<?xml version="1.0" encoding="UTF-8" standalone="no" ?>
<gpx xmlns="http://www.topografix.com/GPX/1/1" xmlns:xsi="http://www.w3.org/2001/XMLSchema-instance" xsi:schemaLocation="http://www.topografix.com/GPX/1/1 http://www.topografix.com/GPX/1/1/gpx.xsd" version="1.1" creator="VisuGPX - https://www.visugpx.com">
  <metadata>
    <name>Cote de Repy</name>
    <desc><![CDATA[Trace AlpineQuest 25/05/2013 11:17:21]]></desc>
  </metadata>
  <trk>
    <name><![CDATA[Cote de Repy_1]]></name>
    <trkseg>
      <trkpt lat="48.39653" lon="6.84644">
        <ele>383</ele>
        <time>2013-05-25T09:19:09Z</time>
      </trkpt>
      <trkpt lat="48.39638" lon="6.84626">
        <ele>380</ele>
        <time>2013-05-25T09:19:17Z</time>
      </trkpt>
      <trkpt lat="48.39585" lon="6.84622">
        <ele>377</ele>
        <time>2013-05-25T09:19:43Z</time>
      </trkpt>
      <trkpt lat="48.39571" lon="6.84633">
        <ele>376</ele>
        <time>2013-05-25T09:19:50Z</time>
      </trkpt>
      <trkpt lat="48.39562" lon="6.84654">
        <ele>374</ele>
        <time>2013-05-25T09:20:03Z</time>
      </trkpt>
      <trkpt lat="48.39557" lon="6.84631">
        <ele>372</ele>
        <time>2013-05-25T09:20:10Z</time>
      </trkpt>
      <trkpt lat="48.39559" lon="6.84613">
        <ele>371</ele>
        <time>2013-05-25T09:20:12Z</time>
      </trkpt>
      <trkpt lat="48.39627" lon="6.84431">
        <ele>374</ele>
        <time>2013-05-25T09:21:12Z</time>
      </trkpt>
      <trkpt lat="48.39632" lon="6.8439">
        <ele>376</ele>
        <time>2013-05-25T09:21:22Z</time>
      </trkpt>
      <trkpt lat="48.39636" lon="6.84234">
        <ele>386</ele>
        <time>2013-05-25T09:22:24Z</time>
      </trkpt>
      <trkpt lat="48.39632" lon="6.84152">
        <ele>393</ele>
        <time>2013-05-25T09:22:36Z</time>
      </trkpt>
      <trkpt lat="48.39619" lon="6.84114">
        <ele>394</ele>
        <time>2013-05-25T09:22:46Z</time>
      </trkpt>
      <trkpt lat="48.39563" lon="6.84047">
        <ele>394</ele>
        <time>2013-05-25T09:23:28Z</time>
      </trkpt>
      <trkpt lat="48.39557" lon="6.84021">
        <ele>395</ele>
        <time>2013-05-25T09:23:41Z</time>
      </trkpt>
      <trkpt lat="48.39543" lon="6.84002">
        <ele>396</ele>
        <time>2013-05-25T09:23:54Z</time>
      </trkpt>
      <trkpt lat="48.39509" lon="6.83908">
        <ele>404</ele>
        <time>2013-05-25T09:24:33Z</time>
      </trkpt>
      <trkpt lat="48.39429" lon="6.83779">
        <ele>413</ele>
        <time>2013-05-25T09:25:39Z</time>
      </trkpt>
      <trkpt lat="48.39425" lon="6.83725">
        <ele>416</ele>
        <time>2013-05-25T09:25:54Z</time>
      </trkpt>
      <trkpt lat="48.39412" lon="6.83693">
        <ele>417</ele>
        <time>2013-05-25T09:26:08Z</time>
      </trkpt>
      <trkpt lat="48.39392" lon="6.83663">
        <ele>420</ele>
        <time>2013-05-25T09:26:32Z</time>
      </trkpt>
      <trkpt lat="48.39378" lon="6.83656">
        <ele>422</ele>
        <time>2013-05-25T09:26:48Z</time>
      </trkpt>
      <trkpt lat="48.39383" lon="6.83691">
        <ele>427</ele>
        <time>2013-05-25T09:27:28Z</time>
      </trkpt>
      <trkpt lat="48.39438" lon="6.83785">
        <ele>434</ele>
        <time>2013-05-25T09:28:28Z</time>
      </trkpt>
      <trkpt lat="48.39452" lon="6.83798">
        <ele>438</ele>
        <time>2013-05-25T09:29:13Z</time>
      </trkpt>
      <trkpt lat="48.3946" lon="6.83815">
        <ele>439</ele>
        <time>2013-05-25T09:29:21Z</time>
      </trkpt>
      <trkpt lat="48.39478" lon="6.83892">
        <ele>440</ele>
        <time>2013-05-25T09:29:50Z</time>
      </trkpt>
      <trkpt lat="48.3951" lon="6.83976">
        <ele>440</ele>
        <time>2013-05-25T09:30:22Z</time>
      </trkpt>
      <trkpt lat="48.39515" lon="6.84041">
        <ele>440</ele>
        <time>2013-05-25T09:30:47Z</time>
      </trkpt>
      <trkpt lat="48.39509" lon="6.8406">
        <ele>440</ele>
        <time>2013-05-25T09:30:59Z</time>
      </trkpt>
      <trkpt lat="48.39508" lon="6.84094">
        <ele>438</ele>
        <time>2013-05-25T09:31:15Z</time>
      </trkpt>
      <trkpt lat="48.39496" lon="6.84146">
        <ele>437</ele>
        <time>2013-05-25T09:31:40Z</time>
      </trkpt>
      <trkpt lat="48.39496" lon="6.84189">
        <ele>437</ele>
        <time>2013-05-25T09:32:02Z</time>
      </trkpt>
      <trkpt lat="48.39487" lon="6.84206">
        <ele>437</ele>
        <time>2013-05-25T09:32:26Z</time>
      </trkpt>
      <trkpt lat="48.39483" lon="6.84234">
        <ele>439</ele>
        <time>2013-05-25T09:32:54Z</time>
      </trkpt>
      <trkpt lat="48.39469" lon="6.84274">
        <ele>442</ele>
        <time>2013-05-25T09:33:24Z</time>
      </trkpt>
      <trkpt lat="48.39448" lon="6.84309">
        <ele>443</ele>
        <time>2013-05-25T09:33:56Z</time>
      </trkpt>
      <trkpt lat="48.39431" lon="6.84322">
        <ele>446</ele>
        <time>2013-05-25T09:34:14Z</time>
      </trkpt>
      <trkpt lat="48.39417" lon="6.84356">
        <ele>452</ele>
        <time>2013-05-25T09:34:51Z</time>
      </trkpt>
      <trkpt lat="48.39397" lon="6.84365">
        <ele>455</ele>
        <time>2013-05-25T09:35:08Z</time>
      </trkpt>
      <trkpt lat="48.3937" lon="6.84388">
        <ele>462</ele>
        <time>2013-05-25T09:35:27Z</time>
      </trkpt>
      <trkpt lat="48.39322" lon="6.84403">
        <ele>475</ele>
        <time>2013-05-25T09:36:35Z</time>
      </trkpt>
      <trkpt lat="48.3931" lon="6.84412">
        <ele>477</ele>
        <time>2013-05-25T09:36:43Z</time>
      </trkpt>
      <trkpt lat="48.39291" lon="6.8444">
        <ele>482</ele>
        <time>2013-05-25T09:37:01Z</time>
      </trkpt>
      <trkpt lat="48.39275" lon="6.84442">
        <ele>485</ele>
        <time>2013-05-25T09:37:16Z</time>
      </trkpt>
      <trkpt lat="48.39236" lon="6.84431">
        <ele>485</ele>
        <time>2013-05-25T09:37:47Z</time>
      </trkpt>
      <trkpt lat="48.39217" lon="6.84433">
        <ele>488</ele>
        <time>2013-05-25T09:38:14Z</time>
      </trkpt>
      <trkpt lat="48.39215" lon="6.84418">
        <ele>489</ele>
        <time>2013-05-25T09:38:37Z</time>
      </trkpt>
      <trkpt lat="48.39225" lon="6.84399">
        <ele>491</ele>
        <time>2013-05-25T09:39:06Z</time>
      </trkpt>
      <trkpt lat="48.39266" lon="6.84377">
        <ele>493</ele>
        <time>2013-05-25T09:39:43Z</time>
      </trkpt>
      <trkpt lat="48.39299" lon="6.84341">
        <ele>493</ele>
        <time>2013-05-25T09:40:02Z</time>
      </trkpt>
      <trkpt lat="48.39338" lon="6.8432">
        <ele>496</ele>
        <time>2013-05-25T09:40:31Z</time>
      </trkpt>
      <trkpt lat="48.39371" lon="6.84257">
        <ele>506</ele>
        <time>2013-05-25T09:41:30Z</time>
      </trkpt>
      <trkpt lat="48.39385" lon="6.8421">
        <ele>509</ele>
        <time>2013-05-25T09:41:57Z</time>
      </trkpt>
      <trkpt lat="48.39399" lon="6.84197">
        <ele>515</ele>
        <time>2013-05-25T09:42:28Z</time>
      </trkpt>
      <trkpt lat="48.39394" lon="6.84182">
        <ele>517</ele>
        <time>2013-05-25T09:43:01Z</time>
      </trkpt>
      <trkpt lat="48.39395" lon="6.84139">
        <ele>519</ele>
        <time>2013-05-25T09:43:18Z</time>
      </trkpt>
      <trkpt lat="48.39381" lon="6.84109">
        <ele>521</ele>
        <time>2013-05-25T09:43:36Z</time>
      </trkpt>
      <trkpt lat="48.39379" lon="6.84075">
        <ele>522</ele>
        <time>2013-05-25T09:43:52Z</time>
      </trkpt>
      <trkpt lat="48.3937" lon="6.84041">
        <ele>524</ele>
        <time>2013-05-25T09:44:11Z</time>
      </trkpt>
      <trkpt lat="48.39362" lon="6.84032">
        <ele>524</ele>
        <time>2013-05-25T09:44:19Z</time>
      </trkpt>
      <trkpt lat="48.39339" lon="6.83965">
        <ele>526</ele>
        <time>2013-05-25T09:44:57Z</time>
      </trkpt>
      <trkpt lat="48.39319" lon="6.83938">
        <ele>528</ele>
        <time>2013-05-25T09:45:20Z</time>
      </trkpt>
      <trkpt lat="48.39313" lon="6.83935">
        <ele>528</ele>
        <time>2013-05-25T09:45:26Z</time>
      </trkpt>
      <trkpt lat="48.39309" lon="6.83942">
        <ele>530</ele>
        <time>2013-05-25T09:45:48Z</time>
      </trkpt>
      <trkpt lat="48.39325" lon="6.83991">
        <ele>535</ele>
        <time>2013-05-25T09:46:22Z</time>
      </trkpt>
      <trkpt lat="48.39332" lon="6.84021">
        <ele>538</ele>
        <time>2013-05-25T09:46:42Z</time>
      </trkpt>
      <trkpt lat="48.39331" lon="6.84041">
        <ele>539</ele>
        <time>2013-05-25T09:46:54Z</time>
      </trkpt>
      <trkpt lat="48.39346" lon="6.84096">
        <ele>544</ele>
        <time>2013-05-25T09:47:28Z</time>
      </trkpt>
      <trkpt lat="48.39345" lon="6.84133">
        <ele>548</ele>
        <time>2013-05-25T09:47:45Z</time>
      </trkpt>
      <trkpt lat="48.39295" lon="6.84208">
        <ele>556</ele>
        <time>2013-05-25T09:48:30Z</time>
      </trkpt>
      <trkpt lat="48.39283" lon="6.84221">
        <ele>558</ele>
        <time>2013-05-25T09:48:45Z</time>
      </trkpt>
      <trkpt lat="48.39264" lon="6.84229">
        <ele>559</ele>
        <time>2013-05-25T09:49:03Z</time>
      </trkpt>
      <trkpt lat="48.3925" lon="6.84214">
        <ele>561</ele>
        <time>2013-05-25T09:49:15Z</time>
      </trkpt>
      <trkpt lat="48.39249" lon="6.84182">
        <ele>563</ele>
        <time>2013-05-25T09:49:28Z</time>
      </trkpt>
      <trkpt lat="48.39255" lon="6.84152">
        <ele>567</ele>
        <time>2013-05-25T09:49:46Z</time>
      </trkpt>
      <trkpt lat="48.39253" lon="6.84137">
        <ele>569</ele>
        <time>2013-05-25T09:49:57Z</time>
      </trkpt>
      <trkpt lat="48.39218" lon="6.84049">
        <ele>577</ele>
        <time>2013-05-25T09:50:53Z</time>
      </trkpt>
      <trkpt lat="48.39181" lon="6.84008">
        <ele>584</ele>
        <time>2013-05-25T09:51:27Z</time>
      </trkpt>
      <trkpt lat="48.39165" lon="6.84006">
        <ele>587</ele>
        <time>2013-05-25T09:51:38Z</time>
      </trkpt>
      <trkpt lat="48.39131" lon="6.83983">
        <ele>594</ele>
        <time>2013-05-25T09:52:12Z</time>
      </trkpt>
      <trkpt lat="48.39119" lon="6.83961">
        <ele>597</ele>
        <time>2013-05-25T09:52:28Z</time>
      </trkpt>
      <trkpt lat="48.39091" lon="6.83935">
        <ele>601</ele>
        <time>2013-05-25T09:52:55Z</time>
      </trkpt>
      <trkpt lat="48.39111" lon="6.83987">
        <ele>612</ele>
        <time>2013-05-25T09:53:52Z</time>
      </trkpt>
      <trkpt lat="48.39133" lon="6.84062">
        <ele>615</ele>
        <time>2013-05-25T09:54:39Z</time>
      </trkpt>
      <trkpt lat="48.39129" lon="6.84096">
        <ele>615</ele>
        <time>2013-05-25T09:54:48Z</time>
      </trkpt>
      <trkpt lat="48.39118" lon="6.84111">
        <ele>615</ele>
        <time>2013-05-25T09:54:56Z</time>
      </trkpt>
      <trkpt lat="48.39099" lon="6.84118">
        <ele>615</ele>
        <time>2013-05-25T09:55:04Z</time>
      </trkpt>
      <trkpt lat="48.39037" lon="6.84118">
        <ele>617</ele>
        <time>2013-05-25T09:55:27Z</time>
      </trkpt>
      <trkpt lat="48.39012" lon="6.84129">
        <ele>621</ele>
        <time>2013-05-25T09:55:41Z</time>
      </trkpt>
      <trkpt lat="48.38972" lon="6.84133">
        <ele>625</ele>
        <time>2013-05-25T09:55:56Z</time>
      </trkpt>
      <trkpt lat="48.38881" lon="6.84111">
        <ele>630</ele>
        <time>2013-05-25T09:56:20Z</time>
      </trkpt>
      <trkpt lat="48.38838" lon="6.84083">
        <ele>631</ele>
        <time>2013-05-25T09:56:29Z</time>
      </trkpt>
      <trkpt lat="48.38808" lon="6.84045">
        <ele>633</ele>
        <time>2013-05-25T09:56:40Z</time>
      </trkpt>
      <trkpt lat="48.38743" lon="6.83978">
        <ele>638</ele>
        <time>2013-05-25T09:57:10Z</time>
      </trkpt>
      <trkpt lat="48.3872" lon="6.83946">
        <ele>638</ele>
        <time>2013-05-25T09:57:17Z</time>
      </trkpt>
      <trkpt lat="48.38657" lon="6.83843">
        <ele>641</ele>
        <time>2013-05-25T09:57:39Z</time>
      </trkpt>
      <trkpt lat="48.38636" lon="6.83796">
        <ele>641</ele>
        <time>2013-05-25T09:57:48Z</time>
      </trkpt>
      <trkpt lat="48.38632" lon="6.83768">
        <ele>642</ele>
        <time>2013-05-25T09:57:52Z</time>
      </trkpt>
      <trkpt lat="48.38633" lon="6.83742">
        <ele>642</ele>
        <time>2013-05-25T09:57:56Z</time>
      </trkpt>
      <trkpt lat="48.3864" lon="6.83738">
        <ele>642</ele>
        <time>2013-05-25T09:57:58Z</time>
      </trkpt>
      <trkpt lat="48.38656" lon="6.8374">
        <ele>642</ele>
        <time>2013-05-25T09:58:02Z</time>
      </trkpt>
      <trkpt lat="48.387" lon="6.83768">
        <ele>644</ele>
        <time>2013-05-25T09:58:12Z</time>
      </trkpt>
      <trkpt lat="48.38723" lon="6.83772">
        <ele>645</ele>
        <time>2013-05-25T09:58:17Z</time>
      </trkpt>
      <trkpt lat="48.38826" lon="6.83764">
        <ele>647</ele>
        <time>2013-05-25T09:58:42Z</time>
      </trkpt>
      <trkpt lat="48.38828" lon="6.83734">
        <ele>647</ele>
        <time>2013-05-25T09:58:55Z</time>
      </trkpt>
      <trkpt lat="48.38794" lon="6.83667">
        <ele>647</ele>
        <time>2013-05-25T09:59:16Z</time>
      </trkpt>
      <trkpt lat="48.38766" lon="6.83646">
        <ele>648</ele>
        <time>2013-05-25T09:59:26Z</time>
      </trkpt>
      <trkpt lat="48.38705" lon="6.83624">
        <ele>650</ele>
        <time>2013-05-25T09:59:47Z</time>
      </trkpt>
      <trkpt lat="48.38633" lon="6.83575">
        <ele>653</ele>
        <time>2013-05-25T10:00:09Z</time>
      </trkpt>
      <trkpt lat="48.38572" lon="6.83521">
        <ele>655</ele>
        <time>2013-05-25T10:00:28Z</time>
      </trkpt>
      <trkpt lat="48.38462" lon="6.83461">
        <ele>659</ele>
        <time>2013-05-25T10:00:57Z</time>
      </trkpt>
      <trkpt lat="48.38436" lon="6.83448">
        <ele>664</ele>
        <time>2013-05-25T10:01:02Z</time>
      </trkpt>
      <trkpt lat="48.38385" lon="6.83433">
        <ele>668</ele>
        <time>2013-05-25T10:01:08Z</time>
      </trkpt>
      <trkpt lat="48.38316" lon="6.83423">
        <ele>675</ele>
        <time>2013-05-25T10:01:20Z</time>
      </trkpt>
      <trkpt lat="48.38306" lon="6.83442">
        <ele>675</ele>
        <time>2013-05-25T10:01:26Z</time>
      </trkpt>
      <trkpt lat="48.38333" lon="6.83498">
        <ele>668</ele>
        <time>2013-05-25T10:01:33Z</time>
      </trkpt>
      <trkpt lat="48.38385" lon="6.83545">
        <ele>655</ele>
        <time>2013-05-25T10:01:44Z</time>
      </trkpt>
      <trkpt lat="48.38411" lon="6.83564">
        <ele>655</ele>
        <time>2013-05-25T10:01:49Z</time>
      </trkpt>
      <trkpt lat="48.38452" lon="6.83579">
        <ele>656</ele>
        <time>2013-05-25T10:01:58Z</time>
      </trkpt>
      <trkpt lat="48.38504" lon="6.83644">
        <ele>658</ele>
        <time>2013-05-25T10:02:13Z</time>
      </trkpt>
      <trkpt lat="48.38567" lon="6.83699">
        <ele>660</ele>
        <time>2013-05-25T10:02:29Z</time>
      </trkpt>
      <trkpt lat="48.38631" lon="6.83721">
        <ele>660</ele>
        <time>2013-05-25T10:03:01Z</time>
      </trkpt>
      <trkpt lat="48.38632" lon="6.83749">
        <ele>655</ele>
        <time>2013-05-25T10:03:51Z</time>
      </trkpt>
      <trkpt lat="48.38641" lon="6.83738">
        <ele>653</ele>
        <time>2013-05-25T10:03:59Z</time>
      </trkpt>
      <trkpt lat="48.38636" lon="6.83721">
        <ele>652</ele>
        <time>2013-05-25T10:04:03Z</time>
      </trkpt>
      <trkpt lat="48.3861" lon="6.83706">
        <ele>643</ele>
        <time>2013-05-25T10:04:10Z</time>
      </trkpt>
      <trkpt lat="48.38618" lon="6.83738">
        <ele>640</ele>
        <time>2013-05-25T10:04:28Z</time>
      </trkpt>
      <trkpt lat="48.38616" lon="6.83747">
        <ele>640</ele>
        <time>2013-05-25T10:04:30Z</time>
      </trkpt>
      <trkpt lat="48.38601" lon="6.83768">
        <ele>640</ele>
        <time>2013-05-25T10:04:37Z</time>
      </trkpt>
      <trkpt lat="48.38584" lon="6.83774">
        <ele>639</ele>
        <time>2013-05-25T10:04:47Z</time>
      </trkpt>
      <trkpt lat="48.38575" lon="6.83755">
        <ele>638</ele>
        <time>2013-05-25T10:04:52Z</time>
      </trkpt>
      <trkpt lat="48.38555" lon="6.83732">
        <ele>637</ele>
        <time>2013-05-25T10:04:58Z</time>
      </trkpt>
      <trkpt lat="48.38515" lon="6.83727">
        <ele>634</ele>
        <time>2013-05-25T10:05:24Z</time>
      </trkpt>
      <trkpt lat="48.38474" lon="6.8368">
        <ele>632</ele>
        <time>2013-05-25T10:05:54Z</time>
      </trkpt>
      <trkpt lat="48.3844" lon="6.8368">
        <ele>631</ele>
        <time>2013-05-25T10:06:04Z</time>
      </trkpt>
      <trkpt lat="48.38399" lon="6.83646">
        <ele>631</ele>
        <time>2013-05-25T10:06:19Z</time>
      </trkpt>
      <trkpt lat="48.38385" lon="6.83641">
        <ele>631</ele>
        <time>2013-05-25T10:06:23Z</time>
      </trkpt>
      <trkpt lat="48.38372" lon="6.83616">
        <ele>631</ele>
        <time>2013-05-25T10:06:30Z</time>
      </trkpt>
      <trkpt lat="48.38345" lon="6.83603">
        <ele>631</ele>
        <time>2013-05-25T10:06:38Z</time>
      </trkpt>
      <trkpt lat="48.3833" lon="6.83538">
        <ele>630</ele>
        <time>2013-05-25T10:06:58Z</time>
      </trkpt>
      <trkpt lat="48.3832" lon="6.83534">
        <ele>629</ele>
        <time>2013-05-25T10:07:04Z</time>
      </trkpt>
      <trkpt lat="48.38309" lon="6.83545">
        <ele>628</ele>
        <time>2013-05-25T10:07:08Z</time>
      </trkpt>
      <trkpt lat="48.38291" lon="6.83577">
        <ele>621</ele>
        <time>2013-05-25T10:07:14Z</time>
      </trkpt>
      <trkpt lat="48.38263" lon="6.83596">
        <ele>618</ele>
        <time>2013-05-25T10:07:21Z</time>
      </trkpt>
      <trkpt lat="48.38215" lon="6.83652">
        <ele>620</ele>
        <time>2013-05-25T10:07:39Z</time>
      </trkpt>
      <trkpt lat="48.38194" lon="6.83684">
        <ele>621</ele>
        <time>2013-05-25T10:07:49Z</time>
      </trkpt>
      <trkpt lat="48.38149" lon="6.83699">
        <ele>623</ele>
        <time>2013-05-25T10:08:03Z</time>
      </trkpt>
      <trkpt lat="48.38112" lon="6.83691">
        <ele>623</ele>
        <time>2013-05-25T10:08:16Z</time>
      </trkpt>
      <trkpt lat="48.38081" lon="6.83656">
        <ele>622</ele>
        <time>2013-05-25T10:08:26Z</time>
      </trkpt>
      <trkpt lat="48.38048" lon="6.83633">
        <ele>621</ele>
        <time>2013-05-25T10:08:45Z</time>
      </trkpt>
      <trkpt lat="48.38002" lon="6.83631">
        <ele>624</ele>
        <time>2013-05-25T10:09:11Z</time>
      </trkpt>
      <trkpt lat="48.37976" lon="6.83609">
        <ele>625</ele>
        <time>2013-05-25T10:09:28Z</time>
      </trkpt>
      <trkpt lat="48.37976" lon="6.83594">
        <ele>626</ele>
        <time>2013-05-25T10:09:38Z</time>
      </trkpt>
      <trkpt lat="48.38003" lon="6.83553">
        <ele>625</ele>
        <time>2013-05-25T10:10:08Z</time>
      </trkpt>
      <trkpt lat="48.38063" lon="6.83513">
        <ele>622</ele>
        <time>2013-05-25T10:10:33Z</time>
      </trkpt>
      <trkpt lat="48.38089" lon="6.83513">
        <ele>621</ele>
        <time>2013-05-25T10:10:42Z</time>
      </trkpt>
      <trkpt lat="48.38097" lon="6.83506">
        <ele>621</ele>
        <time>2013-05-25T10:10:45Z</time>
      </trkpt>
      <trkpt lat="48.381" lon="6.83491">
        <ele>621</ele>
        <time>2013-05-25T10:10:49Z</time>
      </trkpt>
      <trkpt lat="48.38085" lon="6.83448">
        <ele>618</ele>
        <time>2013-05-25T10:10:56Z</time>
      </trkpt>
      <trkpt lat="48.38053" lon="6.83397">
        <ele>614</ele>
        <time>2013-05-25T10:11:06Z</time>
      </trkpt>
      <trkpt lat="48.38021" lon="6.83358">
        <ele>614</ele>
        <time>2013-05-25T10:11:15Z</time>
      </trkpt>
      <trkpt lat="48.38003" lon="6.83305">
        <ele>613</ele>
        <time>2013-05-25T10:11:23Z</time>
      </trkpt>
      <trkpt lat="48.37968" lon="6.83223">
        <ele>612</ele>
        <time>2013-05-25T10:11:35Z</time>
      </trkpt>
      <trkpt lat="48.37928" lon="6.83073">
        <ele>618</ele>
        <time>2013-05-25T10:12:02Z</time>
      </trkpt>
      <trkpt lat="48.37909" lon="6.83036">
        <ele>617</ele>
        <time>2013-05-25T10:12:08Z</time>
      </trkpt>
      <trkpt lat="48.3786" lon="6.8286">
        <ele>614</ele>
        <time>2013-05-25T10:12:28Z</time>
      </trkpt>
      <trkpt lat="48.37854" lon="6.82751">
        <ele>610</ele>
        <time>2013-05-25T10:12:38Z</time>
      </trkpt>
      <trkpt lat="48.37848" lon="6.82725">
        <ele>608</ele>
        <time>2013-05-25T10:12:42Z</time>
      </trkpt>
      <trkpt lat="48.37825" lon="6.82684">
        <ele>606</ele>
        <time>2013-05-25T10:12:49Z</time>
      </trkpt>
      <trkpt lat="48.3782" lon="6.82609">
        <ele>605</ele>
        <time>2013-05-25T10:12:57Z</time>
      </trkpt>
      <trkpt lat="48.37802" lon="6.82551">
        <ele>600</ele>
        <time>2013-05-25T10:13:18Z</time>
      </trkpt>
      <trkpt lat="48.37795" lon="6.82489">
        <ele>597</ele>
        <time>2013-05-25T10:13:24Z</time>
      </trkpt>
      <trkpt lat="48.37802" lon="6.82446">
        <ele>580</ele>
        <time>2013-05-25T10:13:29Z</time>
      </trkpt>
      <trkpt lat="48.37803" lon="6.82412">
        <ele>574</ele>
        <time>2013-05-25T10:13:33Z</time>
      </trkpt>
      <trkpt lat="48.37791" lon="6.82337">
        <ele>571</ele>
        <time>2013-05-25T10:13:43Z</time>
      </trkpt>
      <trkpt lat="48.3779" lon="6.82305">
        <ele>570</ele>
        <time>2013-05-25T10:13:47Z</time>
      </trkpt>
      <trkpt lat="48.37773" lon="6.8223">
        <ele>571</ele>
        <time>2013-05-25T10:13:56Z</time>
      </trkpt>
      <trkpt lat="48.37779" lon="6.82169">
        <ele>571</ele>
        <time>2013-05-25T10:14:02Z</time>
      </trkpt>
      <trkpt lat="48.37816" lon="6.82064">
        <ele>571</ele>
        <time>2013-05-25T10:14:13Z</time>
      </trkpt>
      <trkpt lat="48.37816" lon="6.8206">
        <ele>565</ele>
        <time>2013-05-25T10:16:22Z</time>
      </trkpt>
      <trkpt lat="48.37788" lon="6.82101">
        <ele>553</ele>
        <time>2013-05-25T10:16:45Z</time>
      </trkpt>
      <trkpt lat="48.37762" lon="6.82163">
        <ele>548</ele>
        <time>2013-05-25T10:17:02Z</time>
      </trkpt>
      <trkpt lat="48.37762" lon="6.82197">
        <ele>546</ele>
        <time>2013-05-25T10:17:14Z</time>
      </trkpt>
      <trkpt lat="48.37786" lon="6.82225">
        <ele>545</ele>
        <time>2013-05-25T10:17:25Z</time>
      </trkpt>
      <trkpt lat="48.37795" lon="6.82247">
        <ele>544</ele>
        <time>2013-05-25T10:17:33Z</time>
      </trkpt>
      <trkpt lat="48.37796" lon="6.82302">
        <ele>544</ele>
        <time>2013-05-25T10:18:00Z</time>
      </trkpt>
      <trkpt lat="48.37816" lon="6.82386">
        <ele>544</ele>
        <time>2013-05-25T10:18:31Z</time>
      </trkpt>
      <trkpt lat="48.37811" lon="6.8247">
        <ele>545</ele>
        <time>2013-05-25T10:19:04Z</time>
      </trkpt>
      <trkpt lat="48.37836" lon="6.82541">
        <ele>546</ele>
        <time>2013-05-25T10:19:38Z</time>
      </trkpt>
      <trkpt lat="48.37835" lon="6.82573">
        <ele>547</ele>
        <time>2013-05-25T10:19:51Z</time>
      </trkpt>
      <trkpt lat="48.37842" lon="6.82626">
        <ele>548</ele>
        <time>2013-05-25T10:20:08Z</time>
      </trkpt>
      <trkpt lat="48.37862" lon="6.82648">
        <ele>548</ele>
        <time>2013-05-25T10:20:17Z</time>
      </trkpt>
      <trkpt lat="48.37869" lon="6.82674">
        <ele>549</ele>
        <time>2013-05-25T10:20:24Z</time>
      </trkpt>
      <trkpt lat="48.37875" lon="6.82745">
        <ele>549</ele>
        <time>2013-05-25T10:20:51Z</time>
      </trkpt>
      <trkpt lat="48.37943" lon="6.82802">
        <ele>553</ele>
        <time>2013-05-25T10:21:36Z</time>
      </trkpt>
      <trkpt lat="48.37989" lon="6.82951">
        <ele>558</ele>
        <time>2013-05-25T10:22:21Z</time>
      </trkpt>
      <trkpt lat="48.38029" lon="6.83011">
        <ele>561</ele>
        <time>2013-05-25T10:22:40Z</time>
      </trkpt>
      <trkpt lat="48.38069" lon="6.83034">
        <ele>563</ele>
        <time>2013-05-25T10:22:50Z</time>
      </trkpt>
      <trkpt lat="48.38114" lon="6.83049">
        <ele>565</ele>
        <time>2013-05-25T10:23:00Z</time>
      </trkpt>
      <trkpt lat="48.38142" lon="6.83045">
        <ele>567</ele>
        <time>2013-05-25T10:23:08Z</time>
      </trkpt>
      <trkpt lat="48.38164" lon="6.8303">
        <ele>567</ele>
        <time>2013-05-25T10:23:18Z</time>
      </trkpt>
      <trkpt lat="48.38182" lon="6.83">
        <ele>569</ele>
        <time>2013-05-25T10:23:28Z</time>
      </trkpt>
      <trkpt lat="48.38189" lon="6.82931">
        <ele>572</ele>
        <time>2013-05-25T10:23:52Z</time>
      </trkpt>
      <trkpt lat="48.38195" lon="6.8291">
        <ele>573</ele>
        <time>2013-05-25T10:24:01Z</time>
      </trkpt>
      <trkpt lat="48.38227" lon="6.82835">
        <ele>578</ele>
        <time>2013-05-25T10:24:39Z</time>
      </trkpt>
      <trkpt lat="48.38273" lon="6.82755">
        <ele>579</ele>
        <time>2013-05-25T10:25:13Z</time>
      </trkpt>
      <trkpt lat="48.3829" lon="6.82667">
        <ele>580</ele>
        <time>2013-05-25T10:25:35Z</time>
      </trkpt>
      <trkpt lat="48.38322" lon="6.82599">
        <ele>580</ele>
        <time>2013-05-25T10:26:07Z</time>
      </trkpt>
      <trkpt lat="48.38332" lon="6.82584">
        <ele>580</ele>
        <time>2013-05-25T10:26:15Z</time>
      </trkpt>
      <trkpt lat="48.38349" lon="6.82573">
        <ele>580</ele>
        <time>2013-05-25T10:26:24Z</time>
      </trkpt>
      <trkpt lat="48.38386" lon="6.82575">
        <ele>583</ele>
        <time>2013-05-25T10:26:54Z</time>
      </trkpt>
      <trkpt lat="48.38398" lon="6.82569">
        <ele>584</ele>
        <time>2013-05-25T10:26:58Z</time>
      </trkpt>
      <trkpt lat="48.38407" lon="6.82554">
        <ele>585</ele>
        <time>2013-05-25T10:27:02Z</time>
      </trkpt>
      <trkpt lat="48.38411" lon="6.82493">
        <ele>593</ele>
        <time>2013-05-25T10:27:13Z</time>
      </trkpt>
      <trkpt lat="48.38419" lon="6.82487">
        <ele>593</ele>
        <time>2013-05-25T10:27:17Z</time>
      </trkpt>
      <trkpt lat="48.38452" lon="6.82487">
        <ele>592</ele>
        <time>2013-05-25T10:27:28Z</time>
      </trkpt>
      <trkpt lat="48.38483" lon="6.82508">
        <ele>592</ele>
        <time>2013-05-25T10:27:40Z</time>
      </trkpt>
      <trkpt lat="48.38502" lon="6.82554">
        <ele>590</ele>
        <time>2013-05-25T10:28:26Z</time>
      </trkpt>
      <trkpt lat="48.38515" lon="6.82605">
        <ele>589</ele>
        <time>2013-05-25T10:28:43Z</time>
      </trkpt>
      <trkpt lat="48.38576" lon="6.82757">
        <ele>589</ele>
        <time>2013-05-25T10:29:20Z</time>
      </trkpt>
      <trkpt lat="48.38585" lon="6.82766">
        <ele>590</ele>
        <time>2013-05-25T10:29:23Z</time>
      </trkpt>
      <trkpt lat="48.38668" lon="6.82757">
        <ele>593</ele>
        <time>2013-05-25T10:29:33Z</time>
      </trkpt>
      <trkpt lat="48.38715" lon="6.82779">
        <ele>590</ele>
        <time>2013-05-25T10:29:42Z</time>
      </trkpt>
      <trkpt lat="48.38742" lon="6.82811">
        <ele>581</ele>
        <time>2013-05-25T10:29:47Z</time>
      </trkpt>
      <trkpt lat="48.38805" lon="6.82955">
        <ele>570</ele>
        <time>2013-05-25T10:30:06Z</time>
      </trkpt>
      <trkpt lat="48.38812" lon="6.83013">
        <ele>569</ele>
        <time>2013-05-25T10:30:15Z</time>
      </trkpt>
      <trkpt lat="48.38825" lon="6.83049">
        <ele>568</ele>
        <time>2013-05-25T10:30:25Z</time>
      </trkpt>
      <trkpt lat="48.38841" lon="6.83051">
        <ele>568</ele>
        <time>2013-05-25T10:30:30Z</time>
      </trkpt>
      <trkpt lat="48.38917" lon="6.83017">
        <ele>567</ele>
        <time>2013-05-25T10:30:43Z</time>
      </trkpt>
      <trkpt lat="48.38943" lon="6.83015">
        <ele>569</ele>
        <time>2013-05-25T10:30:50Z</time>
      </trkpt>
      <trkpt lat="48.38989" lon="6.82993">
        <ele>574</ele>
        <time>2013-05-25T10:30:58Z</time>
      </trkpt>
      <trkpt lat="48.39038" lon="6.82993">
        <ele>574</ele>
        <time>2013-05-25T10:31:11Z</time>
      </trkpt>
      <trkpt lat="48.39042" lon="6.82989">
        <ele>569</ele>
        <time>2013-05-25T10:31:13Z</time>
      </trkpt>
      <trkpt lat="48.39041" lon="6.82983">
        <ele>565</ele>
        <time>2013-05-25T10:31:15Z</time>
      </trkpt>
      <trkpt lat="48.39057" lon="6.82953">
        <ele>555</ele>
        <time>2013-05-25T10:31:22Z</time>
      </trkpt>
      <trkpt lat="48.39071" lon="6.8291">
        <ele>551</ele>
        <time>2013-05-25T10:31:30Z</time>
      </trkpt>
      <trkpt lat="48.39084" lon="6.82888">
        <ele>550</ele>
        <time>2013-05-25T10:31:35Z</time>
      </trkpt>
      <trkpt lat="48.39117" lon="6.82863">
        <ele>543</ele>
        <time>2013-05-25T10:31:42Z</time>
      </trkpt>
      <trkpt lat="48.39144" lon="6.82873">
        <ele>542</ele>
        <time>2013-05-25T10:31:49Z</time>
      </trkpt>
      <trkpt lat="48.39149" lon="6.82897">
        <ele>538</ele>
        <time>2013-05-25T10:31:56Z</time>
      </trkpt>
      <trkpt lat="48.39145" lon="6.8292">
        <ele>524</ele>
        <time>2013-05-25T10:32:00Z</time>
      </trkpt>
      <trkpt lat="48.39133" lon="6.83">
        <ele>512</ele>
        <time>2013-05-25T10:32:10Z</time>
      </trkpt>
      <trkpt lat="48.39134" lon="6.83038">
        <ele>506</ele>
        <time>2013-05-25T10:32:15Z</time>
      </trkpt>
      <trkpt lat="48.39147" lon="6.8312">
        <ele>503</ele>
        <time>2013-05-25T10:32:24Z</time>
      </trkpt>
      <trkpt lat="48.39165" lon="6.83189">
        <ele>503</ele>
        <time>2013-05-25T10:33:00Z</time>
      </trkpt>
      <trkpt lat="48.39207" lon="6.83292">
        <ele>501</ele>
        <time>2013-05-25T10:33:15Z</time>
      </trkpt>
      <trkpt lat="48.39226" lon="6.83317">
        <ele>501</ele>
        <time>2013-05-25T10:33:21Z</time>
      </trkpt>
      <trkpt lat="48.39281" lon="6.83418">
        <ele>501</ele>
        <time>2013-05-25T10:33:47Z</time>
      </trkpt>
      <trkpt lat="48.3931" lon="6.8344">
        <ele>503</ele>
        <time>2013-05-25T10:33:55Z</time>
      </trkpt>
      <trkpt lat="48.39333" lon="6.83453">
        <ele>492</ele>
        <time>2013-05-25T10:34:00Z</time>
      </trkpt>
      <trkpt lat="48.39377" lon="6.83532">
        <ele>466</ele>
        <time>2013-05-25T10:34:13Z</time>
      </trkpt>
      <trkpt lat="48.39396" lon="6.83605">
        <ele>462</ele>
        <time>2013-05-25T10:34:24Z</time>
      </trkpt>
      <trkpt lat="48.39415" lon="6.83635">
        <ele>460</ele>
        <time>2013-05-25T10:34:37Z</time>
      </trkpt>
      <trkpt lat="48.39422" lon="6.83637">
        <ele>459</ele>
        <time>2013-05-25T10:34:49Z</time>
      </trkpt>
      <trkpt lat="48.39413" lon="6.83605">
        <ele>451</ele>
        <time>2013-05-25T10:34:56Z</time>
      </trkpt>
      <trkpt lat="48.3941" lon="6.83545">
        <ele>446</ele>
        <time>2013-05-25T10:35:03Z</time>
      </trkpt>
      <trkpt lat="48.394" lon="6.83506">
        <ele>443</ele>
        <time>2013-05-25T10:35:07Z</time>
      </trkpt>
      <trkpt lat="48.39386" lon="6.83485">
        <ele>442</ele>
        <time>2013-05-25T10:35:10Z</time>
      </trkpt>
      <trkpt lat="48.39324" lon="6.83431">
        <ele>438</ele>
        <time>2013-05-25T10:35:20Z</time>
      </trkpt>
      <trkpt lat="48.39294" lon="6.83395">
        <ele>437</ele>
        <time>2013-05-25T10:35:26Z</time>
      </trkpt>
      <trkpt lat="48.39285" lon="6.83375">
        <ele>445</ele>
        <time>2013-05-25T10:36:41Z</time>
      </trkpt>
      <trkpt lat="48.39273" lon="6.83337">
        <ele>449</ele>
        <time>2013-05-25T10:36:45Z</time>
      </trkpt>
      <trkpt lat="48.39255" lon="6.83257">
        <ele>452</ele>
        <time>2013-05-25T10:36:53Z</time>
      </trkpt>
      <trkpt lat="48.39255" lon="6.83191">
        <ele>454</ele>
        <time>2013-05-25T10:36:58Z</time>
      </trkpt>
      <trkpt lat="48.39275" lon="6.83084">
        <ele>459</ele>
        <time>2013-05-25T10:37:06Z</time>
      </trkpt>
      <trkpt lat="48.39306" lon="6.82983">
        <ele>460</ele>
        <time>2013-05-25T10:37:14Z</time>
      </trkpt>
      <trkpt lat="48.39345" lon="6.82871">
        <ele>456</ele>
        <time>2013-05-25T10:37:30Z</time>
      </trkpt>
      <trkpt lat="48.39362" lon="6.82837">
        <ele>457</ele>
        <time>2013-05-25T10:37:36Z</time>
      </trkpt>
      <trkpt lat="48.39368" lon="6.82811">
        <ele>453</ele>
        <time>2013-05-25T10:37:40Z</time>
      </trkpt>
      <trkpt lat="48.39364" lon="6.82772">
        <ele>448</ele>
        <time>2013-05-25T10:37:45Z</time>
      </trkpt>
      <trkpt lat="48.39345" lon="6.82717">
        <ele>439</ele>
        <time>2013-05-25T10:37:51Z</time>
      </trkpt>
      <trkpt lat="48.39327" lon="6.82622">
        <ele>436</ele>
        <time>2013-05-25T10:38:02Z</time>
      </trkpt>
      <trkpt lat="48.39329" lon="6.82579">
        <ele>435</ele>
        <time>2013-05-25T10:38:06Z</time>
      </trkpt>
      <trkpt lat="48.39342" lon="6.82528">
        <ele>433</ele>
        <time>2013-05-25T10:38:11Z</time>
      </trkpt>
      <trkpt lat="48.3934" lon="6.82515">
        <ele>433</ele>
        <time>2013-05-25T10:38:13Z</time>
      </trkpt>
      <trkpt lat="48.39317" lon="6.82491">
        <ele>430</ele>
        <time>2013-05-25T10:38:19Z</time>
      </trkpt>
      <trkpt lat="48.39253" lon="6.82463">
        <ele>427</ele>
        <time>2013-05-25T10:38:30Z</time>
      </trkpt>
      <trkpt lat="48.39223" lon="6.82455">
        <ele>426</ele>
        <time>2013-05-25T10:38:34Z</time>
      </trkpt>
      <trkpt lat="48.39152" lon="6.82451">
        <ele>424</ele>
        <time>2013-05-25T10:38:42Z</time>
      </trkpt>
      <trkpt lat="48.39053" lon="6.82405">
        <ele>425</ele>
        <time>2013-05-25T10:38:56Z</time>
      </trkpt>
      <trkpt lat="48.39013" lon="6.82395">
        <ele>425</ele>
        <time>2013-05-25T10:39:02Z</time>
      </trkpt>
      <trkpt lat="48.38997" lon="6.8238">
        <ele>426</ele>
        <time>2013-05-25T10:39:05Z</time>
      </trkpt>
      <trkpt lat="48.38966" lon="6.82302">
        <ele>427</ele>
        <time>2013-05-25T10:39:43Z</time>
      </trkpt>
      <trkpt lat="48.38951" lon="6.82279">
        <ele>428</ele>
        <time>2013-05-25T10:39:50Z</time>
      </trkpt>
      <trkpt lat="48.38938" lon="6.8227">
        <ele>428</ele>
        <time>2013-05-25T10:39:54Z</time>
      </trkpt>
      <trkpt lat="48.38854" lon="6.82253">
        <ele>429</ele>
        <time>2013-05-25T10:40:19Z</time>
      </trkpt>
      <trkpt lat="48.38802" lon="6.8223">
        <ele>429</ele>
        <time>2013-05-25T10:40:36Z</time>
      </trkpt>
      <trkpt lat="48.38783" lon="6.82204">
        <ele>430</ele>
        <time>2013-05-25T10:40:43Z</time>
      </trkpt>
      <trkpt lat="48.38779" lon="6.8218">
        <ele>430</ele>
        <time>2013-05-25T10:40:46Z</time>
      </trkpt>
      <trkpt lat="48.38779" lon="6.82154">
        <ele>431</ele>
        <time>2013-05-25T10:40:49Z</time>
      </trkpt>
      <trkpt lat="48.38795" lon="6.82043">
        <ele>431</ele>
        <time>2013-05-25T10:41:05Z</time>
      </trkpt>
      <trkpt lat="48.38795" lon="6.81989">
        <ele>431</ele>
        <time>2013-05-25T10:41:13Z</time>
      </trkpt>
      <trkpt lat="48.3878" lon="6.81938">
        <ele>432</ele>
        <time>2013-05-25T10:41:22Z</time>
      </trkpt>
      <trkpt lat="48.38763" lon="6.81916">
        <ele>433</ele>
        <time>2013-05-25T10:41:26Z</time>
      </trkpt>
      <trkpt lat="48.38738" lon="6.81901">
        <ele>433</ele>
        <time>2013-05-25T10:41:29Z</time>
      </trkpt>
      <trkpt lat="48.38671" lon="6.81886">
        <ele>435</ele>
        <time>2013-05-25T10:41:35Z</time>
      </trkpt>
      <trkpt lat="48.38629" lon="6.81865">
        <ele>436</ele>
        <time>2013-05-25T10:41:40Z</time>
      </trkpt>
      <trkpt lat="48.38566" lon="6.81822">
        <ele>435</ele>
        <time>2013-05-25T10:41:49Z</time>
      </trkpt>
      <trkpt lat="48.38516" lon="6.81803">
        <ele>435</ele>
        <time>2013-05-25T10:41:58Z</time>
      </trkpt>
      <trkpt lat="48.3847" lon="6.81796">
        <ele>437</ele>
        <time>2013-05-25T10:42:07Z</time>
      </trkpt>
      <trkpt lat="48.38405" lon="6.81772">
        <ele>438</ele>
        <time>2013-05-25T10:42:19Z</time>
      </trkpt>
      <trkpt lat="48.38348" lon="6.8176">
        <ele>440</ele>
        <time>2013-05-25T10:42:27Z</time>
      </trkpt>
      <trkpt lat="48.38315" lon="6.81764">
        <ele>441</ele>
        <time>2013-05-25T10:42:33Z</time>
      </trkpt>
      <trkpt lat="48.38275" lon="6.81781">
        <ele>442</ele>
        <time>2013-05-25T10:42:42Z</time>
      </trkpt>
      <trkpt lat="48.38271" lon="6.81772">
        <ele>443</ele>
        <time>2013-05-25T10:42:46Z</time>
      </trkpt>
      <trkpt lat="48.38273" lon="6.81749">
        <ele>443</ele>
        <time>2013-05-25T10:42:52Z</time>
      </trkpt>
      <trkpt lat="48.38264" lon="6.81757">
        <ele>444</ele>
        <time>2013-05-25T10:43:05Z</time>
      </trkpt>
      <trkpt lat="48.3826" lon="6.81803">
        <ele>445</ele>
        <time>2013-05-25T10:43:22Z</time>
      </trkpt>
      <trkpt lat="48.38252" lon="6.81813">
        <ele>445</ele>
        <time>2013-05-25T10:43:31Z</time>
      </trkpt>
      <trkpt lat="48.38223" lon="6.81828">
        <ele>447</ele>
        <time>2013-05-25T10:43:50Z</time>
      </trkpt>
      <trkpt lat="48.38183" lon="6.81873">
        <ele>449</ele>
        <time>2013-05-25T10:44:18Z</time>
      </trkpt>
      <trkpt lat="48.38136" lon="6.81908">
        <ele>452</ele>
        <time>2013-05-25T10:44:44Z</time>
      </trkpt>
      <trkpt lat="48.38067" lon="6.82019">
        <ele>457</ele>
        <time>2013-05-25T10:45:21Z</time>
      </trkpt>
      <trkpt lat="48.38069" lon="6.82088">
        <ele>459</ele>
        <time>2013-05-25T10:45:35Z</time>
      </trkpt>
      <trkpt lat="48.38079" lon="6.82124">
        <ele>461</ele>
        <time>2013-05-25T10:45:53Z</time>
      </trkpt>
      <trkpt lat="48.38081" lon="6.82189">
        <ele>465</ele>
        <time>2013-05-25T10:46:12Z</time>
      </trkpt>
      <trkpt lat="48.38096" lon="6.82247">
        <ele>469</ele>
        <time>2013-05-25T10:46:30Z</time>
      </trkpt>
      <trkpt lat="48.38098" lon="6.82281">
        <ele>471</ele>
        <time>2013-05-25T10:46:45Z</time>
      </trkpt>
      <trkpt lat="48.38084" lon="6.82416">
        <ele>474</ele>
        <time>2013-05-25T10:47:48Z</time>
      </trkpt>
      <trkpt lat="48.38084" lon="6.82523">
        <ele>475</ele>
        <time>2013-05-25T10:48:25Z</time>
      </trkpt>
      <trkpt lat="48.38073" lon="6.82543">
        <ele>475</ele>
        <time>2013-05-25T10:48:37Z</time>
      </trkpt>
      <trkpt lat="48.38061" lon="6.82543">
        <ele>475</ele>
        <time>2013-05-25T10:48:54Z</time>
      </trkpt>
      <trkpt lat="48.38035" lon="6.82521">
        <ele>476</ele>
        <time>2013-05-25T10:49:22Z</time>
      </trkpt>
      <trkpt lat="48.38016" lon="6.82493">
        <ele>478</ele>
        <time>2013-05-25T10:49:43Z</time>
      </trkpt>
      <trkpt lat="48.37972" lon="6.82386">
        <ele>483</ele>
        <time>2013-05-25T10:50:46Z</time>
      </trkpt>
      <trkpt lat="48.37965" lon="6.82354">
        <ele>483</ele>
        <time>2013-05-25T10:51:08Z</time>
      </trkpt>
      <trkpt lat="48.37957" lon="6.82341">
        <ele>482</ele>
        <time>2013-05-25T10:51:17Z</time>
      </trkpt>
      <trkpt lat="48.37948" lon="6.82296">
        <ele>480</ele>
        <time>2013-05-25T10:51:36Z</time>
      </trkpt>
      <trkpt lat="48.37947" lon="6.82262">
        <ele>478</ele>
        <time>2013-05-25T10:51:51Z</time>
      </trkpt>
      <trkpt lat="48.37929" lon="6.82195">
        <ele>478</ele>
        <time>2013-05-25T10:52:25Z</time>
      </trkpt>
      <trkpt lat="48.37896" lon="6.82142">
        <ele>480</ele>
        <time>2013-05-25T10:53:04Z</time>
      </trkpt>
      <trkpt lat="48.37874" lon="6.82127">
        <ele>481</ele>
        <time>2013-05-25T10:53:27Z</time>
      </trkpt>
      <trkpt lat="48.37873" lon="6.82114">
        <ele>482</ele>
        <time>2013-05-25T10:53:37Z</time>
      </trkpt>
      <trkpt lat="48.37884" lon="6.82088">
        <ele>483</ele>
        <time>2013-05-25T10:53:51Z</time>
      </trkpt>
      <trkpt lat="48.37911" lon="6.82056">
        <ele>485</ele>
        <time>2013-05-25T10:54:05Z</time>
      </trkpt>
      <trkpt lat="48.37987" lon="6.8194">
        <ele>489</ele>
        <time>2013-05-25T10:54:33Z</time>
      </trkpt>
      <trkpt lat="48.38022" lon="6.81908">
        <ele>495</ele>
        <time>2013-05-25T10:54:49Z</time>
      </trkpt>
      <trkpt lat="48.3812" lon="6.8177">
        <ele>514</ele>
        <time>2013-05-25T10:55:40Z</time>
      </trkpt>
      <trkpt lat="48.38189" lon="6.81723">
        <ele>520</ele>
        <time>2013-05-25T10:56:12Z</time>
      </trkpt>
      <trkpt lat="48.38289" lon="6.8162">
        <ele>523</ele>
        <time>2013-05-25T10:56:49Z</time>
      </trkpt>
      <trkpt lat="48.3831" lon="6.81605">
        <ele>523</ele>
        <time>2013-05-25T10:56:56Z</time>
      </trkpt>
      <trkpt lat="48.38378" lon="6.81517">
        <ele>518</ele>
        <time>2013-05-25T10:57:15Z</time>
      </trkpt>
      <trkpt lat="48.38395" lon="6.81494">
        <ele>510</ele>
        <time>2013-05-25T10:57:20Z</time>
      </trkpt>
      <trkpt lat="48.38412" lon="6.81468">
        <ele>509</ele>
        <time>2013-05-25T10:57:24Z</time>
      </trkpt>
      <trkpt lat="48.3843" lon="6.81448">
        <ele>509</ele>
        <time>2013-05-25T10:57:27Z</time>
      </trkpt>
      <trkpt lat="48.3846" lon="6.81427">
        <ele>507</ele>
        <time>2013-05-25T10:57:32Z</time>
      </trkpt>
      <trkpt lat="48.3848" lon="6.81416">
        <ele>495</ele>
        <time>2013-05-25T10:57:34Z</time>
      </trkpt>
      <trkpt lat="48.38521" lon="6.81399">
        <ele>492</ele>
        <time>2013-05-25T10:57:40Z</time>
      </trkpt>
      <trkpt lat="48.3854" lon="6.81403">
        <ele>489</ele>
        <time>2013-05-25T10:57:44Z</time>
      </trkpt>
      <trkpt lat="48.38559" lon="6.81423">
        <ele>484</ele>
        <time>2013-05-25T10:57:50Z</time>
      </trkpt>
      <trkpt lat="48.38584" lon="6.81468">
        <ele>478</ele>
        <time>2013-05-25T10:57:58Z</time>
      </trkpt>
      <trkpt lat="48.38599" lon="6.81489">
        <ele>460</ele>
        <time>2013-05-25T10:58:02Z</time>
      </trkpt>
      <trkpt lat="48.38616" lon="6.81509">
        <ele>458</ele>
        <time>2013-05-25T10:58:26Z</time>
      </trkpt>
      <trkpt lat="48.38643" lon="6.81556">
        <ele>457</ele>
        <time>2013-05-25T10:58:37Z</time>
      </trkpt>
      <trkpt lat="48.38683" lon="6.81577">
        <ele>456</ele>
        <time>2013-05-25T10:58:52Z</time>
      </trkpt>
      <trkpt lat="48.38797" lon="6.81607">
        <ele>455</ele>
        <time>2013-05-25T10:59:19Z</time>
      </trkpt>
      <trkpt lat="48.38838" lon="6.81612">
        <ele>450</ele>
        <time>2013-05-25T10:59:26Z</time>
      </trkpt>
      <trkpt lat="48.38908" lon="6.81597">
        <ele>428</ele>
        <time>2013-05-25T10:59:35Z</time>
      </trkpt>
      <trkpt lat="48.38942" lon="6.81558">
        <ele>426</ele>
        <time>2013-05-25T10:59:43Z</time>
      </trkpt>
      <trkpt lat="48.38967" lon="6.81543">
        <ele>424</ele>
        <time>2013-05-25T10:59:48Z</time>
      </trkpt>
      <trkpt lat="48.39032" lon="6.81524">
        <ele>420</ele>
        <time>2013-05-25T10:59:58Z</time>
      </trkpt>
      <trkpt lat="48.39073" lon="6.81515">
        <ele>425</ele>
        <time>2013-05-25T11:00:04Z</time>
      </trkpt>
      <trkpt lat="48.3912" lon="6.81519">
        <ele>432</ele>
        <time>2013-05-25T11:00:13Z</time>
      </trkpt>
      <trkpt lat="48.3916" lon="6.81521">
        <ele>428</ele>
        <time>2013-05-25T11:00:31Z</time>
      </trkpt>
      <trkpt lat="48.39199" lon="6.81515">
        <ele>424</ele>
        <time>2013-05-25T11:00:43Z</time>
      </trkpt>
      <trkpt lat="48.39214" lon="6.81506">
        <ele>423</ele>
        <time>2013-05-25T11:00:48Z</time>
      </trkpt>
      <trkpt lat="48.39248" lon="6.81506">
        <ele>420</ele>
        <time>2013-05-25T11:00:57Z</time>
      </trkpt>
      <trkpt lat="48.39266" lon="6.81521">
        <ele>414</ele>
        <time>2013-05-25T11:01:01Z</time>
      </trkpt>
      <trkpt lat="48.39291" lon="6.81547">
        <ele>412</ele>
        <time>2013-05-25T11:01:06Z</time>
      </trkpt>
      <trkpt lat="48.39304" lon="6.81551">
        <ele>412</ele>
        <time>2013-05-25T11:01:08Z</time>
      </trkpt>
      <trkpt lat="48.39358" lon="6.81547">
        <ele>405</ele>
        <time>2013-05-25T11:01:15Z</time>
      </trkpt>
      <trkpt lat="48.39372" lon="6.81558">
        <ele>397</ele>
        <time>2013-05-25T11:01:18Z</time>
      </trkpt>
      <trkpt lat="48.3941" lon="6.81609">
        <ele>385</ele>
        <time>2013-05-25T11:01:24Z</time>
      </trkpt>
      <trkpt lat="48.39487" lon="6.81764">
        <ele>370</ele>
        <time>2013-05-25T11:01:41Z</time>
      </trkpt>
      <trkpt lat="48.395" lon="6.81766">
        <ele>369</ele>
        <time>2013-05-25T11:01:44Z</time>
      </trkpt>
      <trkpt lat="48.39556" lon="6.81732">
        <ele>370</ele>
        <time>2013-05-25T11:01:55Z</time>
      </trkpt>
      <trkpt lat="48.39564" lon="6.81715">
        <ele>369</ele>
        <time>2013-05-25T11:01:57Z</time>
      </trkpt>
      <trkpt lat="48.39566" lon="6.81687">
        <ele>369</ele>
        <time>2013-05-25T11:02:00Z</time>
      </trkpt>
      <trkpt lat="48.39488" lon="6.81569">
        <ele>366</ele>
        <time>2013-05-25T11:02:14Z</time>
      </trkpt>
      <trkpt lat="48.3947" lon="6.81513">
        <ele>365</ele>
        <time>2013-05-25T11:02:22Z</time>
      </trkpt>
      <trkpt lat="48.39559" lon="6.81423">
        <ele>363</ele>
        <time>2013-05-25T11:03:40Z</time>
      </trkpt>
      <trkpt lat="48.39589" lon="6.81378">
        <ele>361</ele>
        <time>2013-05-25T11:03:51Z</time>
      </trkpt>
      <trkpt lat="48.39603" lon="6.81348">
        <ele>360</ele>
        <time>2013-05-25T11:03:58Z</time>
      </trkpt>
      <trkpt lat="48.39607" lon="6.8129">
        <ele>358</ele>
        <time>2013-05-25T11:04:07Z</time>
      </trkpt>
      <trkpt lat="48.39607" lon="6.81262">
        <ele>352</ele>
        <time>2013-05-25T11:04:11Z</time>
      </trkpt>
      <trkpt lat="48.39623" lon="6.81167">
        <ele>342</ele>
        <time>2013-05-25T11:04:26Z</time>
      </trkpt>
      <trkpt lat="48.39615" lon="6.81129">
        <ele>339</ele>
        <time>2013-05-25T11:04:32Z</time>
      </trkpt>
      <trkpt lat="48.396" lon="6.81099">
        <ele>338</ele>
        <time>2013-05-25T11:04:38Z</time>
      </trkpt>
      <trkpt lat="48.39603" lon="6.81088">
        <ele>340</ele>
        <time>2013-05-25T11:05:42Z</time>
      </trkpt>
      <trkpt lat="48.39596" lon="6.81032">
        <ele>343</ele>
        <time>2013-05-25T11:05:51Z</time>
      </trkpt>
      <trkpt lat="48.39597" lon="6.81009">
        <ele>344</ele>
        <time>2013-05-25T11:05:56Z</time>
      </trkpt>
      <trkpt lat="48.3962" lon="6.80981">
        <ele>353</ele>
        <time>2013-05-25T11:06:04Z</time>
      </trkpt>
      <trkpt lat="48.39648" lon="6.80955">
        <ele>355</ele>
        <time>2013-05-25T11:06:15Z</time>
      </trkpt>
      <trkpt lat="48.39688" lon="6.8091">
        <ele>365</ele>
        <time>2013-05-25T11:06:43Z</time>
      </trkpt>
      <trkpt lat="48.39769" lon="6.8079">
        <ele>374</ele>
        <time>2013-05-25T11:07:57Z</time>
      </trkpt>
      <trkpt lat="48.3981" lon="6.80783">
        <ele>375</ele>
        <time>2013-05-25T11:08:16Z</time>
      </trkpt>
      <trkpt lat="48.3992" lon="6.80805">
        <ele>384</ele>
        <time>2013-05-25T11:08:57Z</time>
      </trkpt>
      <trkpt lat="48.39952" lon="6.80803">
        <ele>387</ele>
        <time>2013-05-25T11:09:06Z</time>
      </trkpt>
      <trkpt lat="48.39979" lon="6.80788">
        <ele>390</ele>
        <time>2013-05-25T11:09:13Z</time>
      </trkpt>
      <trkpt lat="48.40001" lon="6.80766">
        <ele>391</ele>
        <time>2013-05-25T11:09:19Z</time>
      </trkpt>
      <trkpt lat="48.40015" lon="6.80727">
        <ele>393</ele>
        <time>2013-05-25T11:09:27Z</time>
      </trkpt>
      <trkpt lat="48.40031" lon="6.80603">
        <ele>399</ele>
        <time>2013-05-25T11:09:53Z</time>
      </trkpt>
      <trkpt lat="48.4003" lon="6.80545">
        <ele>400</ele>
        <time>2013-05-25T11:10:04Z</time>
      </trkpt>
      <trkpt lat="48.40035" lon="6.80504">
        <ele>401</ele>
        <time>2013-05-25T11:10:12Z</time>
      </trkpt>
      <trkpt lat="48.40037" lon="6.80423">
        <ele>402</ele>
        <time>2013-05-25T11:10:28Z</time>
      </trkpt>
      <trkpt lat="48.40054" lon="6.80361">
        <ele>402</ele>
        <time>2013-05-25T11:10:43Z</time>
      </trkpt>
      <trkpt lat="48.4007" lon="6.80326">
        <ele>403</ele>
        <time>2013-05-25T11:10:53Z</time>
      </trkpt>
      <trkpt lat="48.40073" lon="6.80305">
        <ele>404</ele>
        <time>2013-05-25T11:11:04Z</time>
      </trkpt>
      <trkpt lat="48.40063" lon="6.80277">
        <ele>405</ele>
        <time>2013-05-25T11:11:17Z</time>
      </trkpt>
      <trkpt lat="48.40041" lon="6.80245">
        <ele>408</ele>
        <time>2013-05-25T11:11:36Z</time>
      </trkpt>
      <trkpt lat="48.40026" lon="6.8023">
        <ele>411</ele>
        <time>2013-05-25T11:11:48Z</time>
      </trkpt>
      <trkpt lat="48.39955" lon="6.80187">
        <ele>418</ele>
        <time>2013-05-25T11:12:31Z</time>
      </trkpt>
      <trkpt lat="48.39944" lon="6.80146">
        <ele>420</ele>
        <time>2013-05-25T11:12:44Z</time>
      </trkpt>
      <trkpt lat="48.39941" lon="6.80088">
        <ele>421</ele>
        <time>2013-05-25T11:13:00Z</time>
      </trkpt>
      <trkpt lat="48.39944" lon="6.80041">
        <ele>422</ele>
        <time>2013-05-25T11:13:16Z</time>
      </trkpt>
      <trkpt lat="48.39952" lon="6.80007">
        <ele>423</ele>
        <time>2013-05-25T11:13:29Z</time>
      </trkpt>
      <trkpt lat="48.39959" lon="6.79998">
        <ele>423</ele>
        <time>2013-05-25T11:13:35Z</time>
      </trkpt>
      <trkpt lat="48.39976" lon="6.79994">
        <ele>423</ele>
        <time>2013-05-25T11:13:49Z</time>
      </trkpt>
      <trkpt lat="48.40012" lon="6.79961">
        <ele>422</ele>
        <time>2013-05-25T11:13:58Z</time>
      </trkpt>
      <trkpt lat="48.40027" lon="6.79942">
        <ele>422</ele>
        <time>2013-05-25T11:14:02Z</time>
      </trkpt>
      <trkpt lat="48.40039" lon="6.79914">
        <ele>421</ele>
        <time>2013-05-25T11:14:06Z</time>
      </trkpt>
      <trkpt lat="48.40034" lon="6.79873">
        <ele>420</ele>
        <time>2013-05-25T11:14:10Z</time>
      </trkpt>
      <trkpt lat="48.40021" lon="6.79828">
        <ele>420</ele>
        <time>2013-05-25T11:14:15Z</time>
      </trkpt>
      <trkpt lat="48.39981" lon="6.79777">
        <ele>420</ele>
        <time>2013-05-25T11:14:22Z</time>
      </trkpt>
      <trkpt lat="48.399" lon="6.79689">
        <ele>414</ele>
        <time>2013-05-25T11:14:33Z</time>
      </trkpt>
      <trkpt lat="48.39855" lon="6.7965">
        <ele>413</ele>
        <time>2013-05-25T11:14:39Z</time>
      </trkpt>
      <trkpt lat="48.39803" lon="6.7964">
        <ele>412</ele>
        <time>2013-05-25T11:14:45Z</time>
      </trkpt>
      <trkpt lat="48.39779" lon="6.79657">
        <ele>412</ele>
        <time>2013-05-25T11:14:48Z</time>
      </trkpt>
      <trkpt lat="48.39762" lon="6.79657">
        <ele>411</ele>
        <time>2013-05-25T11:14:51Z</time>
      </trkpt>
      <trkpt lat="48.39758" lon="6.79635">
        <ele>411</ele>
        <time>2013-05-25T11:14:54Z</time>
      </trkpt>
      <trkpt lat="48.39762" lon="6.79575">
        <ele>412</ele>
        <time>2013-05-25T11:14:59Z</time>
      </trkpt>
      <trkpt lat="48.3975" lon="6.79537">
        <ele>412</ele>
        <time>2013-05-25T11:15:03Z</time>
      </trkpt>
      <trkpt lat="48.39741" lon="6.79522">
        <ele>412</ele>
        <time>2013-05-25T11:15:05Z</time>
      </trkpt>
      <trkpt lat="48.39705" lon="6.79492">
        <ele>412</ele>
        <time>2013-05-25T11:15:18Z</time>
      </trkpt>
      <trkpt lat="48.39638" lon="6.79451">
        <ele>412</ele>
        <time>2013-05-25T11:15:40Z</time>
      </trkpt>
      <trkpt lat="48.39629" lon="6.79376">
        <ele>414</ele>
        <time>2013-05-25T11:16:02Z</time>
      </trkpt>
      <trkpt lat="48.39633" lon="6.79397">
        <ele>416</ele>
        <time>2013-05-25T11:16:15Z</time>
      </trkpt>
      <trkpt lat="48.39607" lon="6.79397">
        <ele>420</ele>
        <time>2013-05-25T11:16:41Z</time>
      </trkpt>
      <trkpt lat="48.39594" lon="6.79423">
        <ele>422</ele>
        <time>2013-05-25T11:16:59Z</time>
      </trkpt>
      <trkpt lat="48.39542" lon="6.79404">
        <ele>429</ele>
        <time>2013-05-25T11:17:54Z</time>
      </trkpt>
      <trkpt lat="48.39526" lon="6.79408">
        <ele>431</ele>
        <time>2013-05-25T11:18:08Z</time>
      </trkpt>
      <trkpt lat="48.39517" lon="6.79414">
        <ele>432</ele>
        <time>2013-05-25T11:18:16Z</time>
      </trkpt>
      <trkpt lat="48.39495" lon="6.79453">
        <ele>436</ele>
        <time>2013-05-25T11:18:41Z</time>
      </trkpt>
      <trkpt lat="48.39474" lon="6.79496">
        <ele>445</ele>
        <time>2013-05-25T11:19:52Z</time>
      </trkpt>
      <trkpt lat="48.39391" lon="6.79554">
        <ele>457</ele>
        <time>2013-05-25T11:21:15Z</time>
      </trkpt>
      <trkpt lat="48.39375" lon="6.79571">
        <ele>460</ele>
        <time>2013-05-25T11:21:38Z</time>
      </trkpt>
      <trkpt lat="48.3936" lon="6.79603">
        <ele>463</ele>
        <time>2013-05-25T11:22:01Z</time>
      </trkpt>
      <trkpt lat="48.39345" lon="6.79616">
        <ele>467</ele>
        <time>2013-05-25T11:22:43Z</time>
      </trkpt>
      <trkpt lat="48.39352" lon="6.79618">
        <ele>470</ele>
        <time>2013-05-25T11:23:32Z</time>
      </trkpt>
      <trkpt lat="48.3935" lon="6.79631">
        <ele>472</ele>
        <time>2013-05-25T11:23:51Z</time>
      </trkpt>
      <trkpt lat="48.39338" lon="6.79648">
        <ele>474</ele>
        <time>2013-05-25T11:24:05Z</time>
      </trkpt>
      <trkpt lat="48.39338" lon="6.79657">
        <ele>475</ele>
        <time>2013-05-25T11:24:11Z</time>
      </trkpt>
      <trkpt lat="48.39335" lon="6.79652">
        <ele>476</ele>
        <time>2013-05-25T11:24:25Z</time>
      </trkpt>
      <trkpt lat="48.39331" lon="6.79657">
        <ele>478</ele>
        <time>2013-05-25T11:24:35Z</time>
      </trkpt>
      <trkpt lat="48.39295" lon="6.79749">
        <ele>488</ele>
        <time>2013-05-25T11:25:40Z</time>
      </trkpt>
      <trkpt lat="48.39283" lon="6.79792">
        <ele>491</ele>
        <time>2013-05-25T11:26:04Z</time>
      </trkpt>
      <trkpt lat="48.39258" lon="6.79828">
        <ele>494</ele>
        <time>2013-05-25T11:26:25Z</time>
      </trkpt>
      <trkpt lat="48.39253" lon="6.79841">
        <ele>496</ele>
        <time>2013-05-25T11:26:56Z</time>
      </trkpt>
      <trkpt lat="48.39247" lon="6.79841">
        <ele>498</ele>
        <time>2013-05-25T11:27:14Z</time>
      </trkpt>
      <trkpt lat="48.39246" lon="6.79835">
        <ele>498</ele>
        <time>2013-05-25T11:27:29Z</time>
      </trkpt>
      <trkpt lat="48.39243" lon="6.79839">
        <ele>500</ele>
        <time>2013-05-25T11:28:40Z</time>
      </trkpt>
      <trkpt lat="48.39243" lon="6.79833">
        <ele>501</ele>
        <time>2013-05-25T11:29:11Z</time>
      </trkpt>
      <trkpt lat="48.3924" lon="6.79837">
        <ele>501</ele>
        <time>2013-05-25T11:29:21Z</time>
      </trkpt>
      <trkpt lat="48.39254" lon="6.79841">
        <ele>503</ele>
        <time>2013-05-25T11:31:26Z</time>
      </trkpt>
      <trkpt lat="48.39254" lon="6.79837">
        <ele>504</ele>
        <time>2013-05-25T11:31:40Z</time>
      </trkpt>
      <trkpt lat="48.39248" lon="6.79837">
        <ele>504</ele>
        <time>2013-05-25T11:32:00Z</time>
      </trkpt>
      <trkpt lat="48.3925" lon="6.79846">
        <ele>505</ele>
        <time>2013-05-25T11:32:07Z</time>
      </trkpt>
      <trkpt lat="48.39237" lon="6.79886">
        <ele>506</ele>
        <time>2013-05-25T11:32:19Z</time>
      </trkpt>
      <trkpt lat="48.39207" lon="6.79964">
        <ele>506</ele>
        <time>2013-05-25T11:32:43Z</time>
      </trkpt>
      <trkpt lat="48.39208" lon="6.80002">
        <ele>506</ele>
        <time>2013-05-25T11:32:50Z</time>
      </trkpt>
      <trkpt lat="48.39218" lon="6.80045">
        <ele>502</ele>
        <time>2013-05-25T11:32:54Z</time>
      </trkpt>
      <trkpt lat="48.39217" lon="6.80086">
        <ele>502</ele>
        <time>2013-05-25T11:32:58Z</time>
      </trkpt>
      <trkpt lat="48.39208" lon="6.80112">
        <ele>502</ele>
        <time>2013-05-25T11:33:03Z</time>
      </trkpt>
      <trkpt lat="48.39198" lon="6.80116">
        <ele>502</ele>
        <time>2013-05-25T11:33:07Z</time>
      </trkpt>
      <trkpt lat="48.39131" lon="6.8009">
        <ele>496</ele>
        <time>2013-05-25T11:33:24Z</time>
      </trkpt>
      <trkpt lat="48.39126" lon="6.80107">
        <ele>495</ele>
        <time>2013-05-25T11:33:28Z</time>
      </trkpt>
      <trkpt lat="48.39108" lon="6.80125">
        <ele>494</ele>
        <time>2013-05-25T11:33:33Z</time>
      </trkpt>
      <trkpt lat="48.39102" lon="6.80122">
        <ele>491</ele>
        <time>2013-05-25T11:33:36Z</time>
      </trkpt>
      <trkpt lat="48.39105" lon="6.80133">
        <ele>490</ele>
        <time>2013-05-25T11:33:42Z</time>
      </trkpt>
      <trkpt lat="48.39104" lon="6.80195">
        <ele>484</ele>
        <time>2013-05-25T11:33:49Z</time>
      </trkpt>
      <trkpt lat="48.3911" lon="6.80225">
        <ele>483</ele>
        <time>2013-05-25T11:33:54Z</time>
      </trkpt>
      <trkpt lat="48.39107" lon="6.80236">
        <ele>483</ele>
        <time>2013-05-25T11:33:57Z</time>
      </trkpt>
      <trkpt lat="48.39082" lon="6.80232">
        <ele>482</ele>
        <time>2013-05-25T11:34:13Z</time>
      </trkpt>
      <trkpt lat="48.39082" lon="6.80262">
        <ele>482</ele>
        <time>2013-05-25T11:34:18Z</time>
      </trkpt>
      <trkpt lat="48.39072" lon="6.80268">
        <ele>482</ele>
        <time>2013-05-25T11:34:24Z</time>
      </trkpt>
      <trkpt lat="48.39064" lon="6.8029">
        <ele>481</ele>
        <time>2013-05-25T11:34:29Z</time>
      </trkpt>
      <trkpt lat="48.39058" lon="6.80294">
        <ele>481</ele>
        <time>2013-05-25T11:34:33Z</time>
      </trkpt>
      <trkpt lat="48.39051" lon="6.8029">
        <ele>481</ele>
        <time>2013-05-25T11:34:37Z</time>
      </trkpt>
      <trkpt lat="48.39042" lon="6.80298">
        <ele>481</ele>
        <time>2013-05-25T11:34:43Z</time>
      </trkpt>
      <trkpt lat="48.39047" lon="6.80406">
        <ele>482</ele>
        <time>2013-05-25T11:34:59Z</time>
      </trkpt>
      <trkpt lat="48.39044" lon="6.80431">
        <ele>483</ele>
        <time>2013-05-25T11:35:02Z</time>
      </trkpt>
      <trkpt lat="48.39034" lon="6.80442">
        <ele>484</ele>
        <time>2013-05-25T11:35:04Z</time>
      </trkpt>
      <trkpt lat="48.39008" lon="6.80444">
        <ele>485</ele>
        <time>2013-05-25T11:35:09Z</time>
      </trkpt>
      <trkpt lat="48.38958" lon="6.8044">
        <ele>456</ele>
        <time>2013-05-25T11:35:16Z</time>
      </trkpt>
      <trkpt lat="48.38939" lon="6.80434">
        <ele>449</ele>
        <time>2013-05-25T11:35:19Z</time>
      </trkpt>
      <trkpt lat="48.38906" lon="6.80434">
        <ele>436</ele>
        <time>2013-05-25T11:35:25Z</time>
      </trkpt>
      <trkpt lat="48.38858" lon="6.80418">
        <ele>430</ele>
        <time>2013-05-25T11:35:47Z</time>
      </trkpt>
      <trkpt lat="48.38811" lon="6.80388">
        <ele>425</ele>
        <time>2013-05-25T11:36:46Z</time>
      </trkpt>
      <trkpt lat="48.38747" lon="6.80318">
        <ele>421</ele>
        <time>2013-05-25T11:37:25Z</time>
      </trkpt>
      <trkpt lat="48.38689" lon="6.8027">
        <ele>421</ele>
        <time>2013-05-25T11:37:42Z</time>
      </trkpt>
      <trkpt lat="48.38635" lon="6.80249">
        <ele>418</ele>
        <time>2013-05-25T11:37:52Z</time>
      </trkpt>
      <trkpt lat="48.38619" lon="6.80232">
        <ele>416</ele>
        <time>2013-05-25T11:37:56Z</time>
      </trkpt>
      <trkpt lat="48.38595" lon="6.8009">
        <ele>418</ele>
        <time>2013-05-25T11:38:15Z</time>
      </trkpt>
      <trkpt lat="48.38581" lon="6.79957">
        <ele>413</ele>
        <time>2013-05-25T11:38:31Z</time>
      </trkpt>
      <trkpt lat="48.38567" lon="6.79897">
        <ele>412</ele>
        <time>2013-05-25T11:38:40Z</time>
      </trkpt>
      <trkpt lat="48.38554" lon="6.79895">
        <ele>412</ele>
        <time>2013-05-25T11:38:43Z</time>
      </trkpt>
      <trkpt lat="48.38529" lon="6.79921">
        <ele>414</ele>
        <time>2013-05-25T11:38:48Z</time>
      </trkpt>
      <trkpt lat="48.38509" lon="6.79929">
        <ele>414</ele>
        <time>2013-05-25T11:38:53Z</time>
      </trkpt>
      <trkpt lat="48.3849" lon="6.79929">
        <ele>414</ele>
        <time>2013-05-25T11:39:00Z</time>
      </trkpt>
      <trkpt lat="48.38482" lon="6.79919">
        <ele>415</ele>
        <time>2013-05-25T11:39:06Z</time>
      </trkpt>
      <trkpt lat="48.38462" lon="6.79837">
        <ele>421</ele>
        <time>2013-05-25T11:39:36Z</time>
      </trkpt>
      <trkpt lat="48.38424" lon="6.79732">
        <ele>426</ele>
        <time>2013-05-25T11:40:12Z</time>
      </trkpt>
      <trkpt lat="48.38415" lon="6.79687">
        <ele>427</ele>
        <time>2013-05-25T11:40:25Z</time>
      </trkpt>
      <trkpt lat="48.38369" lon="6.79599">
        <ele>429</ele>
        <time>2013-05-25T11:40:48Z</time>
      </trkpt>
      <trkpt lat="48.38332" lon="6.79477">
        <ele>431</ele>
        <time>2013-05-25T11:41:09Z</time>
      </trkpt>
      <trkpt lat="48.38319" lon="6.79395">
        <ele>426</ele>
        <time>2013-05-25T11:41:19Z</time>
      </trkpt>
      <trkpt lat="48.38326" lon="6.79294">
        <ele>427</ele>
        <time>2013-05-25T11:41:31Z</time>
      </trkpt>
      <trkpt lat="48.38312" lon="6.79193">
        <ele>428</ele>
        <time>2013-05-25T11:41:45Z</time>
      </trkpt>
      <trkpt lat="48.38276" lon="6.79067">
        <ele>428</ele>
        <time>2013-05-25T11:42:06Z</time>
      </trkpt>
      <trkpt lat="48.38244" lon="6.78998">
        <ele>430</ele>
        <time>2013-05-25T11:42:24Z</time>
      </trkpt>
      <trkpt lat="48.38238" lon="6.79">
        <ele>432</ele>
        <time>2013-05-25T11:42:31Z</time>
      </trkpt>
      <trkpt lat="48.38237" lon="6.79019">
        <ele>433</ele>
        <time>2013-05-25T11:42:37Z</time>
      </trkpt>
      <trkpt lat="48.38204" lon="6.79015">
        <ele>434</ele>
        <time>2013-05-25T11:42:48Z</time>
      </trkpt>
      <trkpt lat="48.38182" lon="6.79026">
        <ele>434</ele>
        <time>2013-05-25T11:43:01Z</time>
      </trkpt>
      <trkpt lat="48.3816" lon="6.79058">
        <ele>434</ele>
        <time>2013-05-25T11:43:14Z</time>
      </trkpt>
      <trkpt lat="48.38144" lon="6.79097">
        <ele>435</ele>
        <time>2013-05-25T11:43:29Z</time>
      </trkpt>
      <trkpt lat="48.38135" lon="6.79103">
        <ele>436</ele>
        <time>2013-05-25T11:43:34Z</time>
      </trkpt>
      <trkpt lat="48.38116" lon="6.79103">
        <ele>437</ele>
        <time>2013-05-25T11:43:43Z</time>
      </trkpt>
      <trkpt lat="48.38073" lon="6.79086">
        <ele>441</ele>
        <time>2013-05-25T11:44:03Z</time>
      </trkpt>
      <trkpt lat="48.37986" lon="6.79032">
        <ele>448</ele>
        <time>2013-05-25T11:44:55Z</time>
      </trkpt>
      <trkpt lat="48.3795" lon="6.79022">
        <ele>451</ele>
        <time>2013-05-25T11:45:16Z</time>
      </trkpt>
      <trkpt lat="48.37906" lon="6.78979">
        <ele>452</ele>
        <time>2013-05-25T11:45:43Z</time>
      </trkpt>
      <trkpt lat="48.37861" lon="6.7891">
        <ele>455</ele>
        <time>2013-05-25T11:46:22Z</time>
      </trkpt>
      <trkpt lat="48.37837" lon="6.78891">
        <ele>456</ele>
        <time>2013-05-25T11:46:38Z</time>
      </trkpt>
      <trkpt lat="48.37808" lon="6.78893">
        <ele>458</ele>
        <time>2013-05-25T11:46:56Z</time>
      </trkpt>
      <trkpt lat="48.37781" lon="6.78944">
        <ele>459</ele>
        <time>2013-05-25T11:47:20Z</time>
      </trkpt>
      <trkpt lat="48.37746" lon="6.78974">
        <ele>463</ele>
        <time>2013-05-25T11:47:39Z</time>
      </trkpt>
      <trkpt lat="48.37733" lon="6.78979">
        <ele>463</ele>
        <time>2013-05-25T11:47:43Z</time>
      </trkpt>
      <trkpt lat="48.37694" lon="6.78974">
        <ele>465</ele>
        <time>2013-05-25T11:47:54Z</time>
      </trkpt>
      <trkpt lat="48.37595" lon="6.78912">
        <ele>474</ele>
        <time>2013-05-25T11:48:32Z</time>
      </trkpt>
      <trkpt lat="48.37544" lon="6.78901">
        <ele>480</ele>
        <time>2013-05-25T11:49:04Z</time>
      </trkpt>
      <trkpt lat="48.37494" lon="6.78835">
        <ele>487</ele>
        <time>2013-05-25T11:49:59Z</time>
      </trkpt>
      <trkpt lat="48.37439" lon="6.78734">
        <ele>495</ele>
        <time>2013-05-25T11:50:50Z</time>
      </trkpt>
      <trkpt lat="48.37396" lon="6.78676">
        <ele>498</ele>
        <time>2013-05-25T11:51:25Z</time>
      </trkpt>
      <trkpt lat="48.3738" lon="6.78668">
        <ele>499</ele>
        <time>2013-05-25T11:51:36Z</time>
      </trkpt>
      <trkpt lat="48.37365" lon="6.78678">
        <ele>499</ele>
        <time>2013-05-25T11:51:44Z</time>
      </trkpt>
      <trkpt lat="48.37349" lon="6.78678">
        <ele>499</ele>
        <time>2013-05-25T11:51:52Z</time>
      </trkpt>
      <trkpt lat="48.37302" lon="6.78659">
        <ele>499</ele>
        <time>2013-05-25T11:52:17Z</time>
      </trkpt>
      <trkpt lat="48.37282" lon="6.78698">
        <ele>499</ele>
        <time>2013-05-25T11:52:30Z</time>
      </trkpt>
      <trkpt lat="48.37282" lon="6.78775">
        <ele>499</ele>
        <time>2013-05-25T11:52:48Z</time>
      </trkpt>
      <trkpt lat="48.37259" lon="6.78884">
        <ele>501</ele>
        <time>2013-05-25T11:53:12Z</time>
      </trkpt>
      <trkpt lat="48.37255" lon="6.78947">
        <ele>502</ele>
        <time>2013-05-25T11:53:23Z</time>
      </trkpt>
      <trkpt lat="48.37312" lon="6.79107">
        <ele>512</ele>
        <time>2013-05-25T11:53:42Z</time>
      </trkpt>
      <trkpt lat="48.37369" lon="6.7935">
        <ele>522</ele>
        <time>2013-05-25T11:54:02Z</time>
      </trkpt>
      <trkpt lat="48.37381" lon="6.79378">
        <ele>522</ele>
        <time>2013-05-25T11:54:08Z</time>
      </trkpt>
      <trkpt lat="48.3743" lon="6.7944">
        <ele>524</ele>
        <time>2013-05-25T11:54:45Z</time>
      </trkpt>
      <trkpt lat="48.3744" lon="6.79464">
        <ele>525</ele>
        <time>2013-05-25T11:54:55Z</time>
      </trkpt>
      <trkpt lat="48.3745" lon="6.79532">
        <ele>529</ele>
        <time>2013-05-25T11:55:18Z</time>
      </trkpt>
      <trkpt lat="48.37448" lon="6.79545">
        <ele>530</ele>
        <time>2013-05-25T11:55:24Z</time>
      </trkpt>
      <trkpt lat="48.37412" lon="6.79569">
        <ele>531</ele>
        <time>2013-05-25T11:56:01Z</time>
      </trkpt>
      <trkpt lat="48.374" lon="6.79592">
        <ele>532</ele>
        <time>2013-05-25T11:56:07Z</time>
      </trkpt>
      <trkpt lat="48.37395" lon="6.79635">
        <ele>532</ele>
        <time>2013-05-25T11:56:16Z</time>
      </trkpt>
      <trkpt lat="48.37381" lon="6.79661">
        <ele>530</ele>
        <time>2013-05-25T11:56:21Z</time>
      </trkpt>
      <trkpt lat="48.37369" lon="6.7971">
        <ele>529</ele>
        <time>2013-05-25T11:56:31Z</time>
      </trkpt>
      <trkpt lat="48.3734" lon="6.79777">
        <ele>529</ele>
        <time>2013-05-25T11:56:41Z</time>
      </trkpt>
      <trkpt lat="48.37311" lon="6.79914">
        <ele>525</ele>
        <time>2013-05-25T11:57:00Z</time>
      </trkpt>
      <trkpt lat="48.37314" lon="6.7997">
        <ele>526</ele>
        <time>2013-05-25T11:57:08Z</time>
      </trkpt>
      <trkpt lat="48.37351" lon="6.80105">
        <ele>526</ele>
        <time>2013-05-25T11:57:20Z</time>
      </trkpt>
      <trkpt lat="48.37353" lon="6.80146">
        <ele>528</ele>
        <time>2013-05-25T11:57:23Z</time>
      </trkpt>
      <trkpt lat="48.37352" lon="6.8018">
        <ele>528</ele>
        <time>2013-05-25T11:57:26Z</time>
      </trkpt>
      <trkpt lat="48.37341" lon="6.80245">
        <ele>529</ele>
        <time>2013-05-25T11:57:32Z</time>
      </trkpt>
      <trkpt lat="48.37339" lon="6.803">
        <ele>529</ele>
        <time>2013-05-25T11:57:37Z</time>
      </trkpt>
      <trkpt lat="48.37344" lon="6.80382">
        <ele>528</ele>
        <time>2013-05-25T11:57:52Z</time>
      </trkpt>
      <trkpt lat="48.37341" lon="6.80479">
        <ele>526</ele>
        <time>2013-05-25T11:58:13Z</time>
      </trkpt>
      <trkpt lat="48.37326" lon="6.80545">
        <ele>524</ele>
        <time>2013-05-25T11:58:26Z</time>
      </trkpt>
      <trkpt lat="48.37282" lon="6.80661">
        <ele>518</ele>
        <time>2013-05-25T11:58:56Z</time>
      </trkpt>
      <trkpt lat="48.37231" lon="6.8074">
        <ele>515</ele>
        <time>2013-05-25T11:59:20Z</time>
      </trkpt>
      <trkpt lat="48.37221" lon="6.80783">
        <ele>510</ele>
        <time>2013-05-25T11:59:25Z</time>
      </trkpt>
      <trkpt lat="48.37201" lon="6.80895">
        <ele>509</ele>
        <time>2013-05-25T11:59:36Z</time>
      </trkpt>
      <trkpt lat="48.37197" lon="6.80968">
        <ele>507</ele>
        <time>2013-05-25T11:59:45Z</time>
      </trkpt>
      <trkpt lat="48.37212" lon="6.81009">
        <ele>509</ele>
        <time>2013-05-25T11:59:51Z</time>
      </trkpt>
      <trkpt lat="48.37276" lon="6.81088">
        <ele>510</ele>
        <time>2013-05-25T12:00:03Z</time>
      </trkpt>
      <trkpt lat="48.37359" lon="6.8123">
        <ele>510</ele>
        <time>2013-05-25T12:00:24Z</time>
      </trkpt>
      <trkpt lat="48.37384" lon="6.81305">
        <ele>510</ele>
        <time>2013-05-25T12:00:31Z</time>
      </trkpt>
      <trkpt lat="48.37428" lon="6.8135">
        <ele>511</ele>
        <time>2013-05-25T12:00:38Z</time>
      </trkpt>
      <trkpt lat="48.37483" lon="6.81421">
        <ele>512</ele>
        <time>2013-05-25T12:00:47Z</time>
      </trkpt>
      <trkpt lat="48.37491" lon="6.81438">
        <ele>513</ele>
        <time>2013-05-25T12:00:49Z</time>
      </trkpt>
      <trkpt lat="48.375" lon="6.81487">
        <ele>513</ele>
        <time>2013-05-25T12:00:55Z</time>
      </trkpt>
      <trkpt lat="48.37522" lon="6.81532">
        <ele>512</ele>
        <time>2013-05-25T12:01:04Z</time>
      </trkpt>
      <trkpt lat="48.37553" lon="6.81639">
        <ele>510</ele>
        <time>2013-05-25T12:01:24Z</time>
      </trkpt>
      <trkpt lat="48.37573" lon="6.81775">
        <ele>514</ele>
        <time>2013-05-25T12:01:46Z</time>
      </trkpt>
      <trkpt lat="48.37572" lon="6.81906">
        <ele>520</ele>
        <time>2013-05-25T12:01:58Z</time>
      </trkpt>
      <trkpt lat="48.37594" lon="6.81996">
        <ele>515</ele>
        <time>2013-05-25T12:02:11Z</time>
      </trkpt>
      <trkpt lat="48.37595" lon="6.82">
        <ele>510</ele>
        <time>2013-05-25T12:05:06Z</time>
      </trkpt>
      <trkpt lat="48.3759" lon="6.82009">
        <ele>510</ele>
        <time>2013-05-25T12:05:21Z</time>
      </trkpt>
      <trkpt lat="48.37564" lon="6.82009">
        <ele>508</ele>
        <time>2013-05-25T12:06:04Z</time>
      </trkpt>
      <trkpt lat="48.37573" lon="6.82002">
        <ele>505</ele>
        <time>2013-05-25T12:06:40Z</time>
      </trkpt>
      <trkpt lat="48.37573" lon="6.82013">
        <ele>501</ele>
        <time>2013-05-25T12:06:56Z</time>
      </trkpt>
      <trkpt lat="48.37564" lon="6.82116">
        <ele>492</ele>
        <time>2013-05-25T12:07:13Z</time>
      </trkpt>
      <trkpt lat="48.37567" lon="6.82159">
        <ele>488</ele>
        <time>2013-05-25T12:07:22Z</time>
      </trkpt>
      <trkpt lat="48.37554" lon="6.82217">
        <ele>484</ele>
        <time>2013-05-25T12:07:35Z</time>
      </trkpt>
      <trkpt lat="48.37555" lon="6.82242">
        <ele>483</ele>
        <time>2013-05-25T12:07:40Z</time>
      </trkpt>
      <trkpt lat="48.37591" lon="6.82371">
        <ele>482</ele>
        <time>2013-05-25T12:08:10Z</time>
      </trkpt>
      <trkpt lat="48.37625" lon="6.82451">
        <ele>483</ele>
        <time>2013-05-25T12:08:43Z</time>
      </trkpt>
      <trkpt lat="48.37629" lon="6.82476">
        <ele>483</ele>
        <time>2013-05-25T12:08:58Z</time>
      </trkpt>
      <trkpt lat="48.37682" lon="6.82631">
        <ele>490</ele>
        <time>2013-05-25T12:10:24Z</time>
      </trkpt>
      <trkpt lat="48.37689" lon="6.82669">
        <ele>491</ele>
        <time>2013-05-25T12:10:35Z</time>
      </trkpt>
      <trkpt lat="48.37684" lon="6.82732">
        <ele>493</ele>
        <time>2013-05-25T12:10:48Z</time>
      </trkpt>
      <trkpt lat="48.37669" lon="6.82807">
        <ele>497</ele>
        <time>2013-05-25T12:11:15Z</time>
      </trkpt>
      <trkpt lat="48.37671" lon="6.82832">
        <ele>501</ele>
        <time>2013-05-25T12:11:36Z</time>
      </trkpt>
      <trkpt lat="48.37669" lon="6.82837">
        <ele>502</ele>
        <time>2013-05-25T12:11:40Z</time>
      </trkpt>
      <trkpt lat="48.3765" lon="6.82835">
        <ele>504</ele>
        <time>2013-05-25T12:11:55Z</time>
      </trkpt>
      <trkpt lat="48.37641" lon="6.82848">
        <ele>505</ele>
        <time>2013-05-25T12:12:04Z</time>
      </trkpt>
      <trkpt lat="48.37623" lon="6.82884">
        <ele>506</ele>
        <time>2013-05-25T12:12:19Z</time>
      </trkpt>
      <trkpt lat="48.3762" lon="6.8292">
        <ele>507</ele>
        <time>2013-05-25T12:12:28Z</time>
      </trkpt>
      <trkpt lat="48.3764" lon="6.83">
        <ele>512</ele>
        <time>2013-05-25T12:12:55Z</time>
      </trkpt>
      <trkpt lat="48.37657" lon="6.83021">
        <ele>515</ele>
        <time>2013-05-25T12:13:10Z</time>
      </trkpt>
      <trkpt lat="48.37686" lon="6.83088">
        <ele>518</ele>
        <time>2013-05-25T12:13:33Z</time>
      </trkpt>
      <trkpt lat="48.37706" lon="6.83116">
        <ele>519</ele>
        <time>2013-05-25T12:13:49Z</time>
      </trkpt>
      <trkpt lat="48.37713" lon="6.83156">
        <ele>518</ele>
        <time>2013-05-25T12:14:06Z</time>
      </trkpt>
      <trkpt lat="48.37699" lon="6.83227">
        <ele>518</ele>
        <time>2013-05-25T12:14:30Z</time>
      </trkpt>
      <trkpt lat="48.37677" lon="6.83283">
        <ele>518</ele>
        <time>2013-05-25T12:14:52Z</time>
      </trkpt>
      <trkpt lat="48.37669" lon="6.83287">
        <ele>518</ele>
        <time>2013-05-25T12:15:00Z</time>
      </trkpt>
      <trkpt lat="48.37664" lon="6.83283">
        <ele>518</ele>
        <time>2013-05-25T12:15:04Z</time>
      </trkpt>
      <trkpt lat="48.37649" lon="6.83253">
        <ele>518</ele>
        <time>2013-05-25T12:15:23Z</time>
      </trkpt>
      <trkpt lat="48.37612" lon="6.83272">
        <ele>517</ele>
        <time>2013-05-25T12:15:46Z</time>
      </trkpt>
      <trkpt lat="48.37601" lon="6.833">
        <ele>517</ele>
        <time>2013-05-25T12:16:00Z</time>
      </trkpt>
      <trkpt lat="48.37602" lon="6.83324">
        <ele>516</ele>
        <time>2013-05-25T12:16:22Z</time>
      </trkpt>
      <trkpt lat="48.37639" lon="6.83393">
        <ele>517</ele>
        <time>2013-05-25T12:17:14Z</time>
      </trkpt>
      <trkpt lat="48.37668" lon="6.83463">
        <ele>519</ele>
        <time>2013-05-25T12:17:29Z</time>
      </trkpt>
      <trkpt lat="48.37678" lon="6.83519">
        <ele>521</ele>
        <time>2013-05-25T12:17:42Z</time>
      </trkpt>
      <trkpt lat="48.37675" lon="6.83553">
        <ele>523</ele>
        <time>2013-05-25T12:17:52Z</time>
      </trkpt>
      <trkpt lat="48.37619" lon="6.83637">
        <ele>528</ele>
        <time>2013-05-25T12:18:21Z</time>
      </trkpt>
      <trkpt lat="48.37568" lon="6.83691">
        <ele>533</ele>
        <time>2013-05-25T12:18:44Z</time>
      </trkpt>
      <trkpt lat="48.37538" lon="6.83712">
        <ele>534</ele>
        <time>2013-05-25T12:18:56Z</time>
      </trkpt>
      <trkpt lat="48.37527" lon="6.83712">
        <ele>535</ele>
        <time>2013-05-25T12:19:02Z</time>
      </trkpt>
      <trkpt lat="48.3752" lon="6.83702">
        <ele>536</ele>
        <time>2013-05-25T12:19:16Z</time>
      </trkpt>
      <trkpt lat="48.37516" lon="6.83719">
        <ele>536</ele>
        <time>2013-05-25T12:19:29Z</time>
      </trkpt>
      <trkpt lat="48.37508" lon="6.83714">
        <ele>532</ele>
        <time>2013-05-25T12:20:30Z</time>
      </trkpt>
      <trkpt lat="48.3751" lon="6.83706">
        <ele>529</ele>
        <time>2013-05-25T12:21:34Z</time>
      </trkpt>
      <trkpt lat="48.37482" lon="6.83736">
        <ele>525</ele>
        <time>2013-05-25T12:21:51Z</time>
      </trkpt>
      <trkpt lat="48.37442" lon="6.83792">
        <ele>522</ele>
        <time>2013-05-25T12:22:16Z</time>
      </trkpt>
      <trkpt lat="48.37425" lon="6.83837">
        <ele>521</ele>
        <time>2013-05-25T12:22:32Z</time>
      </trkpt>
      <trkpt lat="48.37392" lon="6.83886">
        <ele>519</ele>
        <time>2013-05-25T12:22:52Z</time>
      </trkpt>
      <trkpt lat="48.37362" lon="6.8395">
        <ele>519</ele>
        <time>2013-05-25T12:23:18Z</time>
      </trkpt>
      <trkpt lat="48.37352" lon="6.83985">
        <ele>517</ele>
        <time>2013-05-25T12:23:36Z</time>
      </trkpt>
      <trkpt lat="48.37353" lon="6.84006">
        <ele>516</ele>
        <time>2013-05-25T12:23:45Z</time>
      </trkpt>
      <trkpt lat="48.37348" lon="6.84034">
        <ele>516</ele>
        <time>2013-05-25T12:24:02Z</time>
      </trkpt>
      <trkpt lat="48.37332" lon="6.84077">
        <ele>516</ele>
        <time>2013-05-25T12:24:11Z</time>
      </trkpt>
      <trkpt lat="48.37325" lon="6.84137">
        <ele>516</ele>
        <time>2013-05-25T12:24:20Z</time>
      </trkpt>
      <trkpt lat="48.37312" lon="6.8418">
        <ele>514</ele>
        <time>2013-05-25T12:24:29Z</time>
      </trkpt>
      <trkpt lat="48.37308" lon="6.84214">
        <ele>514</ele>
        <time>2013-05-25T12:24:38Z</time>
      </trkpt>
      <trkpt lat="48.37309" lon="6.84251">
        <ele>513</ele>
        <time>2013-05-25T12:24:45Z</time>
      </trkpt>
      <trkpt lat="48.37321" lon="6.84302">
        <ele>511</ele>
        <time>2013-05-25T12:24:51Z</time>
      </trkpt>
      <trkpt lat="48.37329" lon="6.8439">
        <ele>510</ele>
        <time>2013-05-25T12:24:58Z</time>
      </trkpt>
      <trkpt lat="48.37309" lon="6.84515">
        <ele>511</ele>
        <time>2013-05-25T12:25:08Z</time>
      </trkpt>
      <trkpt lat="48.37309" lon="6.84594">
        <ele>511</ele>
        <time>2013-05-25T12:25:13Z</time>
      </trkpt>
      <trkpt lat="48.3732" lon="6.84708">
        <ele>508</ele>
        <time>2013-05-25T12:25:21Z</time>
      </trkpt>
      <trkpt lat="48.37334" lon="6.84794">
        <ele>508</ele>
        <time>2013-05-25T12:25:33Z</time>
      </trkpt>
      <trkpt lat="48.37326" lon="6.84826">
        <ele>506</ele>
        <time>2013-05-25T12:25:42Z</time>
      </trkpt>
      <trkpt lat="48.37296" lon="6.84886">
        <ele>506</ele>
        <time>2013-05-25T12:26:06Z</time>
      </trkpt>
      <trkpt lat="48.37282" lon="6.84972">
        <ele>506</ele>
        <time>2013-05-25T12:26:22Z</time>
      </trkpt>
      <trkpt lat="48.37258" lon="6.85075">
        <ele>504</ele>
        <time>2013-05-25T12:26:45Z</time>
      </trkpt>
      <trkpt lat="48.3725" lon="6.85137">
        <ele>503</ele>
        <time>2013-05-25T12:26:59Z</time>
      </trkpt>
      <trkpt lat="48.37259" lon="6.85204">
        <ele>501</ele>
        <time>2013-05-25T12:27:11Z</time>
      </trkpt>
      <trkpt lat="48.3727" lon="6.85246">
        <ele>500</ele>
        <time>2013-05-25T12:27:19Z</time>
      </trkpt>
      <trkpt lat="48.37302" lon="6.85311">
        <ele>497</ele>
        <time>2013-05-25T12:27:46Z</time>
      </trkpt>
      <trkpt lat="48.37314" lon="6.85354">
        <ele>495</ele>
        <time>2013-05-25T12:27:58Z</time>
      </trkpt>
      <trkpt lat="48.37314" lon="6.85429">
        <ele>495</ele>
        <time>2013-05-25T12:28:14Z</time>
      </trkpt>
      <trkpt lat="48.37294" lon="6.85528">
        <ele>495</ele>
        <time>2013-05-25T12:28:28Z</time>
      </trkpt>
      <trkpt lat="48.37291" lon="6.85568">
        <ele>495</ele>
        <time>2013-05-25T12:28:33Z</time>
      </trkpt>
      <trkpt lat="48.37295" lon="6.85605">
        <ele>495</ele>
        <time>2013-05-25T12:28:38Z</time>
      </trkpt>
      <trkpt lat="48.37311" lon="6.85661">
        <ele>494</ele>
        <time>2013-05-25T12:28:49Z</time>
      </trkpt>
      <trkpt lat="48.37323" lon="6.85755">
        <ele>492</ele>
        <time>2013-05-25T12:29:14Z</time>
      </trkpt>
      <trkpt lat="48.37339" lon="6.85785">
        <ele>490</ele>
        <time>2013-05-25T12:29:23Z</time>
      </trkpt>
      <trkpt lat="48.37391" lon="6.85839">
        <ele>486</ele>
        <time>2013-05-25T12:29:45Z</time>
      </trkpt>
      <trkpt lat="48.37524" lon="6.8589">
        <ele>477</ele>
        <time>2013-05-25T12:30:56Z</time>
      </trkpt>
      <trkpt lat="48.37601" lon="6.85965">
        <ele>480</ele>
        <time>2013-05-25T12:31:48Z</time>
      </trkpt>
      <trkpt lat="48.37604" lon="6.85995">
        <ele>481</ele>
        <time>2013-05-25T12:32:20Z</time>
      </trkpt>
      <trkpt lat="48.37602" lon="6.86019">
        <ele>484</ele>
        <time>2013-05-25T12:33:16Z</time>
      </trkpt>
      <trkpt lat="48.37606" lon="6.86094">
        <ele>497</ele>
        <time>2013-05-25T12:33:25Z</time>
      </trkpt>
      <trkpt lat="48.37606" lon="6.86156">
        <ele>498</ele>
        <time>2013-05-25T12:33:32Z</time>
      </trkpt>
      <trkpt lat="48.376" lon="6.86238">
        <ele>497</ele>
        <time>2013-05-25T12:33:42Z</time>
      </trkpt>
      <trkpt lat="48.37588" lon="6.8627">
        <ele>498</ele>
        <time>2013-05-25T12:33:50Z</time>
      </trkpt>
      <trkpt lat="48.37572" lon="6.86219">
        <ele>500</ele>
        <time>2013-05-25T12:34:18Z</time>
      </trkpt>
      <trkpt lat="48.3756" lon="6.86135">
        <ele>502</ele>
        <time>2013-05-25T12:34:34Z</time>
      </trkpt>
      <trkpt lat="48.37533" lon="6.86073">
        <ele>502</ele>
        <time>2013-05-25T12:34:47Z</time>
      </trkpt>
      <trkpt lat="48.37503" lon="6.86036">
        <ele>502</ele>
        <time>2013-05-25T12:34:58Z</time>
      </trkpt>
      <trkpt lat="48.37458" lon="6.86013">
        <ele>504</ele>
        <time>2013-05-25T12:35:07Z</time>
      </trkpt>
      <trkpt lat="48.37449" lon="6.86002">
        <ele>506</ele>
        <time>2013-05-25T12:35:10Z</time>
      </trkpt>
      <trkpt lat="48.37441" lon="6.8601">
        <ele>507</ele>
        <time>2013-05-25T12:35:21Z</time>
      </trkpt>
      <trkpt lat="48.37434" lon="6.86">
        <ele>508</ele>
        <time>2013-05-25T12:35:29Z</time>
      </trkpt>
      <trkpt lat="48.37446" lon="6.86032">
        <ele>509</ele>
        <time>2013-05-25T12:35:47Z</time>
      </trkpt>
      <trkpt lat="48.3743" lon="6.86019">
        <ele>503</ele>
        <time>2013-05-25T12:35:54Z</time>
      </trkpt>
      <trkpt lat="48.37405" lon="6.86008">
        <ele>504</ele>
        <time>2013-05-25T12:36:00Z</time>
      </trkpt>
      <trkpt lat="48.37386" lon="6.86028">
        <ele>503</ele>
        <time>2013-05-25T12:36:05Z</time>
      </trkpt>
      <trkpt lat="48.37396" lon="6.86019">
        <ele>497</ele>
        <time>2013-05-25T12:36:16Z</time>
      </trkpt>
      <trkpt lat="48.37367" lon="6.86028">
        <ele>477</ele>
        <time>2013-05-25T12:36:53Z</time>
      </trkpt>
      <trkpt lat="48.374" lon="6.86047">
        <ele>467</ele>
        <time>2013-05-25T12:37:06Z</time>
      </trkpt>
      <trkpt lat="48.37399" lon="6.86062">
        <ele>463</ele>
        <time>2013-05-25T12:37:14Z</time>
      </trkpt>
      <trkpt lat="48.3741" lon="6.86077">
        <ele>457</ele>
        <time>2013-05-25T12:37:30Z</time>
      </trkpt>
      <trkpt lat="48.37366" lon="6.86126">
        <ele>446</ele>
        <time>2013-05-25T12:37:42Z</time>
      </trkpt>
      <trkpt lat="48.37321" lon="6.86103">
        <ele>444</ele>
        <time>2013-05-25T12:38:20Z</time>
      </trkpt>
      <trkpt lat="48.37281" lon="6.86055">
        <ele>435</ele>
        <time>2013-05-25T12:39:25Z</time>
      </trkpt>
      <trkpt lat="48.37296" lon="6.86062">
        <ele>423</ele>
        <time>2013-05-25T12:39:49Z</time>
      </trkpt>
      <trkpt lat="48.3729" lon="6.86051">
        <ele>419</ele>
        <time>2013-05-25T12:40:41Z</time>
      </trkpt>
      <trkpt lat="48.37293" lon="6.86058">
        <ele>417</ele>
        <time>2013-05-25T12:41:01Z</time>
      </trkpt>
      <trkpt lat="48.3729" lon="6.86062">
        <ele>415</ele>
        <time>2013-05-25T12:41:10Z</time>
      </trkpt>
      <trkpt lat="48.37247" lon="6.8607">
        <ele>407</ele>
        <time>2013-05-25T12:41:32Z</time>
      </trkpt>
      <trkpt lat="48.37238" lon="6.8607">
        <ele>406</ele>
        <time>2013-05-25T12:41:37Z</time>
      </trkpt>
      <trkpt lat="48.37224" lon="6.86053">
        <ele>404</ele>
        <time>2013-05-25T12:41:45Z</time>
      </trkpt>
      <trkpt lat="48.37197" lon="6.8591">
        <ele>394</ele>
        <time>2013-05-25T12:42:30Z</time>
      </trkpt>
      <trkpt lat="48.37191" lon="6.85824">
        <ele>387</ele>
        <time>2013-05-25T12:43:06Z</time>
      </trkpt>
      <trkpt lat="48.37184" lon="6.85804">
        <ele>388</ele>
        <time>2013-05-25T12:43:21Z</time>
      </trkpt>
      <trkpt lat="48.37188" lon="6.85721">
        <ele>392</ele>
        <time>2013-05-25T12:44:01Z</time>
      </trkpt>
      <trkpt lat="48.37178" lon="6.85719">
        <ele>392</ele>
        <time>2013-05-25T12:45:06Z</time>
      </trkpt>
      <trkpt lat="48.37177" lon="6.8571">
        <ele>392</ele>
        <time>2013-05-25T12:45:38Z</time>
      </trkpt>
      <trkpt lat="48.37177" lon="6.85716">
        <ele>392</ele>
        <time>2013-05-25T12:46:13Z</time>
      </trkpt>
      <trkpt lat="48.37186" lon="6.85719">
        <ele>393</ele>
        <time>2013-05-25T12:46:41Z</time>
      </trkpt>
      <trkpt lat="48.37187" lon="6.85729">
        <ele>395</ele>
        <time>2013-05-25T12:47:00Z</time>
      </trkpt>
      <trkpt lat="48.37181" lon="6.85646">
        <ele>403</ele>
        <time>2013-05-25T12:47:23Z</time>
      </trkpt>
      <trkpt lat="48.37182" lon="6.85594">
        <ele>415</ele>
        <time>2013-05-25T12:47:31Z</time>
      </trkpt>
      <trkpt lat="48.37182" lon="6.8551">
        <ele>421</ele>
        <time>2013-05-25T12:47:43Z</time>
      </trkpt>
      <trkpt lat="48.37174" lon="6.85502">
        <ele>421</ele>
        <time>2013-05-25T12:47:46Z</time>
      </trkpt>
      <trkpt lat="48.37159" lon="6.85502">
        <ele>421</ele>
        <time>2013-05-25T12:47:50Z</time>
      </trkpt>
      <trkpt lat="48.3713" lon="6.85463">
        <ele>420</ele>
        <time>2013-05-25T12:48:05Z</time>
      </trkpt>
      <trkpt lat="48.37128" lon="6.8542">
        <ele>421</ele>
        <time>2013-05-25T12:48:59Z</time>
      </trkpt>
      <trkpt lat="48.3712" lon="6.85388">
        <ele>421</ele>
        <time>2013-05-25T12:49:05Z</time>
      </trkpt>
      <trkpt lat="48.37054" lon="6.85283">
        <ele>421</ele>
        <time>2013-05-25T12:49:44Z</time>
      </trkpt>
      <trkpt lat="48.37014" lon="6.85113">
        <ele>416</ele>
        <time>2013-05-25T12:50:12Z</time>
      </trkpt>
      <trkpt lat="48.37038" lon="6.84957">
        <ele>415</ele>
        <time>2013-05-25T12:50:33Z</time>
      </trkpt>
      <trkpt lat="48.3706" lon="6.84927">
        <ele>417</ele>
        <time>2013-05-25T12:50:39Z</time>
      </trkpt>
      <trkpt lat="48.37098" lon="6.84903">
        <ele>416</ele>
        <time>2013-05-25T12:50:46Z</time>
      </trkpt>
      <trkpt lat="48.37112" lon="6.84884">
        <ele>416</ele>
        <time>2013-05-25T12:50:49Z</time>
      </trkpt>
      <trkpt lat="48.37126" lon="6.84817">
        <ele>415</ele>
        <time>2013-05-25T12:50:57Z</time>
      </trkpt>
      <trkpt lat="48.37148" lon="6.84772">
        <ele>414</ele>
        <time>2013-05-25T12:51:04Z</time>
      </trkpt>
      <trkpt lat="48.37154" lon="6.84725">
        <ele>413</ele>
        <time>2013-05-25T12:51:10Z</time>
      </trkpt>
      <trkpt lat="48.37154" lon="6.84667">
        <ele>414</ele>
        <time>2013-05-25T12:51:40Z</time>
      </trkpt>
      <trkpt lat="48.37184" lon="6.84571">
        <ele>416</ele>
        <time>2013-05-25T12:52:16Z</time>
      </trkpt>
      <trkpt lat="48.37188" lon="6.845">
        <ele>416</ele>
        <time>2013-05-25T12:52:32Z</time>
      </trkpt>
      <trkpt lat="48.37173" lon="6.84429">
        <ele>416</ele>
        <time>2013-05-25T12:52:51Z</time>
      </trkpt>
      <trkpt lat="48.37199" lon="6.84354">
        <ele>415</ele>
        <time>2013-05-25T12:53:08Z</time>
      </trkpt>
      <trkpt lat="48.37193" lon="6.843">
        <ele>416</ele>
        <time>2013-05-25T12:53:15Z</time>
      </trkpt>
      <trkpt lat="48.37176" lon="6.84247">
        <ele>416</ele>
        <time>2013-05-25T12:53:22Z</time>
      </trkpt>
      <trkpt lat="48.37157" lon="6.84144">
        <ele>415</ele>
        <time>2013-05-25T12:53:39Z</time>
      </trkpt>
      <trkpt lat="48.37147" lon="6.84146">
        <ele>415</ele>
        <time>2013-05-25T12:53:47Z</time>
      </trkpt>
      <trkpt lat="48.37139" lon="6.84184">
        <ele>415</ele>
        <time>2013-05-25T12:53:57Z</time>
      </trkpt>
      <trkpt lat="48.37123" lon="6.84184">
        <ele>414</ele>
        <time>2013-05-25T12:54:02Z</time>
      </trkpt>
      <trkpt lat="48.37012" lon="6.84073">
        <ele>421</ele>
        <time>2013-05-25T12:54:28Z</time>
      </trkpt>
      <trkpt lat="48.36983" lon="6.84051">
        <ele>422</ele>
        <time>2013-05-25T12:54:35Z</time>
      </trkpt>
      <trkpt lat="48.36979" lon="6.84036">
        <ele>423</ele>
        <time>2013-05-25T12:54:38Z</time>
      </trkpt>
      <trkpt lat="48.37022" lon="6.83946">
        <ele>421</ele>
        <time>2013-05-25T12:54:56Z</time>
      </trkpt>
      <trkpt lat="48.37034" lon="6.83916">
        <ele>408</ele>
        <time>2013-05-25T12:55:02Z</time>
      </trkpt>
      <trkpt lat="48.37045" lon="6.83869">
        <ele>402</ele>
        <time>2013-05-25T12:55:10Z</time>
      </trkpt>
      <trkpt lat="48.37105" lon="6.83714">
        <ele>398</ele>
        <time>2013-05-25T12:56:14Z</time>
      </trkpt>
      <trkpt lat="48.37193" lon="6.83635">
        <ele>404</ele>
        <time>2013-05-25T12:57:24Z</time>
      </trkpt>
      <trkpt lat="48.3732" lon="6.83536">
        <ele>407</ele>
        <time>2013-05-25T12:58:27Z</time>
      </trkpt>
      <trkpt lat="48.37382" lon="6.83446">
        <ele>409</ele>
        <time>2013-05-25T12:58:55Z</time>
      </trkpt>
      <trkpt lat="48.37382" lon="6.83371">
        <ele>410</ele>
        <time>2013-05-25T12:59:13Z</time>
      </trkpt>
      <trkpt lat="48.37378" lon="6.8333">
        <ele>412</ele>
        <time>2013-05-25T12:59:41Z</time>
      </trkpt>
      <trkpt lat="48.37399" lon="6.83154">
        <ele>417</ele>
        <time>2013-05-25T13:00:45Z</time>
      </trkpt>
      <trkpt lat="48.37409" lon="6.83101">
        <ele>423</ele>
        <time>2013-05-25T13:00:52Z</time>
      </trkpt>
      <trkpt lat="48.37406" lon="6.83069">
        <ele>425</ele>
        <time>2013-05-25T13:00:56Z</time>
      </trkpt>
      <trkpt lat="48.37393" lon="6.83038">
        <ele>426</ele>
        <time>2013-05-25T13:01:04Z</time>
      </trkpt>
      <trkpt lat="48.37393" lon="6.83026">
        <ele>427</ele>
        <time>2013-05-25T13:01:08Z</time>
      </trkpt>
      <trkpt lat="48.37435" lon="6.82908">
        <ele>428</ele>
        <time>2013-05-25T13:01:27Z</time>
      </trkpt>
      <trkpt lat="48.37474" lon="6.82753">
        <ele>423</ele>
        <time>2013-05-25T13:01:48Z</time>
      </trkpt>
      <trkpt lat="48.3748" lon="6.82704">
        <ele>423</ele>
        <time>2013-05-25T13:01:55Z</time>
      </trkpt>
      <trkpt lat="48.37481" lon="6.82611">
        <ele>423</ele>
        <time>2013-05-25T13:02:09Z</time>
      </trkpt>
      <trkpt lat="48.37493" lon="6.82543">
        <ele>424</ele>
        <time>2013-05-25T13:02:25Z</time>
      </trkpt>
      <trkpt lat="48.37492" lon="6.82502">
        <ele>424</ele>
        <time>2013-05-25T13:02:33Z</time>
      </trkpt>
      <trkpt lat="48.37481" lon="6.82425">
        <ele>426</ele>
        <time>2013-05-25T13:02:52Z</time>
      </trkpt>
      <trkpt lat="48.37496" lon="6.82322">
        <ele>430</ele>
        <time>2013-05-25T13:05:00Z</time>
      </trkpt>
      <trkpt lat="48.37483" lon="6.82294">
        <ele>431</ele>
        <time>2013-05-25T13:05:32Z</time>
      </trkpt>
      <trkpt lat="48.37469" lon="6.82283">
        <ele>433</ele>
        <time>2013-05-25T13:05:55Z</time>
      </trkpt>
      <trkpt lat="48.37468" lon="6.82268">
        <ele>435</ele>
        <time>2013-05-25T13:06:17Z</time>
      </trkpt>
      <trkpt lat="48.37505" lon="6.82197">
        <ele>438</ele>
        <time>2013-05-25T13:06:59Z</time>
      </trkpt>
      <trkpt lat="48.37509" lon="6.82178">
        <ele>438</ele>
        <time>2013-05-25T13:07:15Z</time>
      </trkpt>
      <trkpt lat="48.37546" lon="6.82109">
        <ele>443</ele>
        <time>2013-05-25T13:08:24Z</time>
      </trkpt>
      <trkpt lat="48.3756" lon="6.82054">
        <ele>451</ele>
        <time>2013-05-25T13:09:18Z</time>
      </trkpt>
      <trkpt lat="48.37558" lon="6.82013">
        <ele>455</ele>
        <time>2013-05-25T13:10:03Z</time>
      </trkpt>
      <trkpt lat="48.37569" lon="6.82011">
        <ele>457</ele>
        <time>2013-05-25T13:10:34Z</time>
      </trkpt>
      <trkpt lat="48.37572" lon="6.81998">
        <ele>460</ele>
        <time>2013-05-25T13:10:58Z</time>
      </trkpt>
      <trkpt lat="48.37571" lon="6.82002">
        <ele>462</ele>
        <time>2013-05-25T13:11:27Z</time>
      </trkpt>
      <trkpt lat="48.37568" lon="6.81998">
        <ele>463</ele>
        <time>2013-05-25T13:11:56Z</time>
      </trkpt>
      <trkpt lat="48.37573" lon="6.81985">
        <ele>467</ele>
        <time>2013-05-25T13:12:23Z</time>
      </trkpt>
      <trkpt lat="48.37587" lon="6.81972">
        <ele>468</ele>
        <time>2013-05-25T13:12:30Z</time>
      </trkpt>
      <trkpt lat="48.37606" lon="6.81981">
        <ele>471</ele>
        <time>2013-05-25T13:12:45Z</time>
      </trkpt>
      <trkpt lat="48.3763" lon="6.81961">
        <ele>472</ele>
        <time>2013-05-25T13:12:56Z</time>
      </trkpt>
      <trkpt lat="48.37693" lon="6.81858">
        <ele>476</ele>
        <time>2013-05-25T13:13:24Z</time>
      </trkpt>
      <trkpt lat="48.37714" lon="6.81845">
        <ele>479</ele>
        <time>2013-05-25T13:13:44Z</time>
      </trkpt>
      <trkpt lat="48.37728" lon="6.81807">
        <ele>485</ele>
        <time>2013-05-25T13:14:27Z</time>
      </trkpt>
      <trkpt lat="48.37742" lon="6.81794">
        <ele>488</ele>
        <time>2013-05-25T13:14:45Z</time>
      </trkpt>
      <trkpt lat="48.37782" lon="6.81796">
        <ele>493</ele>
        <time>2013-05-25T13:15:24Z</time>
      </trkpt>
      <trkpt lat="48.37809" lon="6.81818">
        <ele>496</ele>
        <time>2013-05-25T13:16:02Z</time>
      </trkpt>
      <trkpt lat="48.3783" lon="6.81848">
        <ele>500</ele>
        <time>2013-05-25T13:16:29Z</time>
      </trkpt>
      <trkpt lat="48.37834" lon="6.81895">
        <ele>505</ele>
        <time>2013-05-25T13:16:59Z</time>
      </trkpt>
      <trkpt lat="48.37825" lon="6.81948">
        <ele>512</ele>
        <time>2013-05-25T13:17:46Z</time>
      </trkpt>
      <trkpt lat="48.37836" lon="6.82036">
        <ele>520</ele>
        <time>2013-05-25T13:18:49Z</time>
      </trkpt>
      <trkpt lat="48.37831" lon="6.82075">
        <ele>521</ele>
        <time>2013-05-25T13:19:05Z</time>
      </trkpt>
      <trkpt lat="48.37811" lon="6.82129">
        <ele>523</ele>
        <time>2013-05-25T13:19:25Z</time>
      </trkpt>
      <trkpt lat="48.37764" lon="6.8218">
        <ele>525</ele>
        <time>2013-05-25T13:20:05Z</time>
      </trkpt>
      <trkpt lat="48.3772" lon="6.82281">
        <ele>535</ele>
        <time>2013-05-25T13:20:45Z</time>
      </trkpt>
      <trkpt lat="48.37707" lon="6.82328">
        <ele>538</ele>
        <time>2013-05-25T13:20:57Z</time>
      </trkpt>
      <trkpt lat="48.37705" lon="6.82378">
        <ele>540</ele>
        <time>2013-05-25T13:21:12Z</time>
      </trkpt>
      <trkpt lat="48.37727" lon="6.82483">
        <ele>544</ele>
        <time>2013-05-25T13:21:56Z</time>
      </trkpt>
      <trkpt lat="48.37752" lon="6.82556">
        <ele>543</ele>
        <time>2013-05-25T13:22:33Z</time>
      </trkpt>
      <trkpt lat="48.37773" lon="6.82592">
        <ele>542</ele>
        <time>2013-05-25T13:22:49Z</time>
      </trkpt>
      <trkpt lat="48.37789" lon="6.82657">
        <ele>543</ele>
        <time>2013-05-25T13:23:05Z</time>
      </trkpt>
      <trkpt lat="48.37796" lon="6.82768">
        <ele>544</ele>
        <time>2013-05-25T13:23:31Z</time>
      </trkpt>
      <trkpt lat="48.3779" lon="6.82914">
        <ele>550</ele>
        <time>2013-05-25T13:24:18Z</time>
      </trkpt>
      <trkpt lat="48.37765" lon="6.83004">
        <ele>552</ele>
        <time>2013-05-25T13:24:47Z</time>
      </trkpt>
      <trkpt lat="48.37763" lon="6.83049">
        <ele>553</ele>
        <time>2013-05-25T13:24:59Z</time>
      </trkpt>
      <trkpt lat="48.37774" lon="6.83092">
        <ele>553</ele>
        <time>2013-05-25T13:25:11Z</time>
      </trkpt>
      <trkpt lat="48.3781" lon="6.8318">
        <ele>553</ele>
        <time>2013-05-25T13:25:44Z</time>
      </trkpt>
      <trkpt lat="48.37803" lon="6.83238">
        <ele>557</ele>
        <time>2013-05-25T13:26:17Z</time>
      </trkpt>
      <trkpt lat="48.37783" lon="6.83277">
        <ele>560</ele>
        <time>2013-05-25T13:26:30Z</time>
      </trkpt>
      <trkpt lat="48.37761" lon="6.83305">
        <ele>563</ele>
        <time>2013-05-25T13:26:45Z</time>
      </trkpt>
      <trkpt lat="48.37738" lon="6.83362">
        <ele>565</ele>
        <time>2013-05-25T13:27:02Z</time>
      </trkpt>
      <trkpt lat="48.37733" lon="6.83397">
        <ele>566</ele>
        <time>2013-05-25T13:27:13Z</time>
      </trkpt>
      <trkpt lat="48.37741" lon="6.83446">
        <ele>568</ele>
        <time>2013-05-25T13:27:34Z</time>
      </trkpt>
      <trkpt lat="48.37779" lon="6.83543">
        <ele>570</ele>
        <time>2013-05-25T13:28:08Z</time>
      </trkpt>
      <trkpt lat="48.37816" lon="6.83596">
        <ele>569</ele>
        <time>2013-05-25T13:28:27Z</time>
      </trkpt>
      <trkpt lat="48.37827" lon="6.83622">
        <ele>569</ele>
        <time>2013-05-25T13:28:41Z</time>
      </trkpt>
      <trkpt lat="48.37826" lon="6.83637">
        <ele>569</ele>
        <time>2013-05-25T13:28:58Z</time>
      </trkpt>
      <trkpt lat="48.37808" lon="6.83659">
        <ele>571</ele>
        <time>2013-05-25T13:29:23Z</time>
      </trkpt>
      <trkpt lat="48.3781" lon="6.83667">
        <ele>573</ele>
        <time>2013-05-25T13:29:41Z</time>
      </trkpt>
      <trkpt lat="48.37829" lon="6.83659">
        <ele>577</ele>
        <time>2013-05-25T13:30:17Z</time>
      </trkpt>
      <trkpt lat="48.37848" lon="6.83665">
        <ele>582</ele>
        <time>2013-05-25T13:30:51Z</time>
      </trkpt>
      <trkpt lat="48.37856" lon="6.83656">
        <ele>586</ele>
        <time>2013-05-25T13:31:20Z</time>
      </trkpt>
      <trkpt lat="48.37875" lon="6.83654">
        <ele>588</ele>
        <time>2013-05-25T13:32:02Z</time>
      </trkpt>
      <trkpt lat="48.379" lon="6.83641">
        <ele>594</ele>
        <time>2013-05-25T13:32:43Z</time>
      </trkpt>
      <trkpt lat="48.37909" lon="6.83646">
        <ele>600</ele>
        <time>2013-05-25T13:33:08Z</time>
      </trkpt>
      <trkpt lat="48.37921" lon="6.83629">
        <ele>607</ele>
        <time>2013-05-25T13:33:44Z</time>
      </trkpt>
      <trkpt lat="48.37953" lon="6.83601">
        <ele>617</ele>
        <time>2013-05-25T13:34:41Z</time>
      </trkpt>
      <trkpt lat="48.37977" lon="6.83607">
        <ele>619</ele>
        <time>2013-05-25T13:35:06Z</time>
      </trkpt>
      <trkpt lat="48.37993" lon="6.83581">
        <ele>617</ele>
        <time>2013-05-25T13:35:52Z</time>
      </trkpt>
      <trkpt lat="48.37992" lon="6.83629">
        <ele>619</ele>
        <time>2013-05-25T13:36:17Z</time>
      </trkpt>
      <trkpt lat="48.37999" lon="6.83646">
        <ele>620</ele>
        <time>2013-05-25T13:36:28Z</time>
      </trkpt>
      <trkpt lat="48.38047" lon="6.83686">
        <ele>623</ele>
        <time>2013-05-25T13:36:51Z</time>
      </trkpt>
      <trkpt lat="48.38129" lon="6.83783">
        <ele>629</ele>
        <time>2013-05-25T13:37:17Z</time>
      </trkpt>
      <trkpt lat="48.38165" lon="6.83794">
        <ele>630</ele>
        <time>2013-05-25T13:37:28Z</time>
      </trkpt>
      <trkpt lat="48.3823" lon="6.83764">
        <ele>627</ele>
        <time>2013-05-25T13:37:50Z</time>
      </trkpt>
      <trkpt lat="48.38229" lon="6.83757">
        <ele>618</ele>
        <time>2013-05-25T13:38:42Z</time>
      </trkpt>
      <trkpt lat="48.38222" lon="6.83759">
        <ele>613</ele>
        <time>2013-05-25T13:38:45Z</time>
      </trkpt>
      <trkpt lat="48.38194" lon="6.83826">
        <ele>610</ele>
        <time>2013-05-25T13:38:57Z</time>
      </trkpt>
      <trkpt lat="48.38158" lon="6.83854">
        <ele>608</ele>
        <time>2013-05-25T13:39:06Z</time>
      </trkpt>
      <trkpt lat="48.38116" lon="6.83856">
        <ele>606</ele>
        <time>2013-05-25T13:39:13Z</time>
      </trkpt>
      <trkpt lat="48.38076" lon="6.8385">
        <ele>604</ele>
        <time>2013-05-25T13:39:22Z</time>
      </trkpt>
      <trkpt lat="48.3805" lon="6.83826">
        <ele>603</ele>
        <time>2013-05-25T13:39:30Z</time>
      </trkpt>
      <trkpt lat="48.38038" lon="6.83832">
        <ele>602</ele>
        <time>2013-05-25T13:39:37Z</time>
      </trkpt>
      <trkpt lat="48.38003" lon="6.83897">
        <ele>600</ele>
        <time>2013-05-25T13:39:57Z</time>
      </trkpt>
      <trkpt lat="48.37994" lon="6.83925">
        <ele>600</ele>
        <time>2013-05-25T13:40:02Z</time>
      </trkpt>
      <trkpt lat="48.37987" lon="6.8397">
        <ele>600</ele>
        <time>2013-05-25T13:40:09Z</time>
      </trkpt>
      <trkpt lat="48.37988" lon="6.8403">
        <ele>602</ele>
        <time>2013-05-25T13:40:17Z</time>
      </trkpt>
      <trkpt lat="48.37981" lon="6.84071">
        <ele>602</ele>
        <time>2013-05-25T13:40:24Z</time>
      </trkpt>
      <trkpt lat="48.37951" lon="6.84111">
        <ele>604</ele>
        <time>2013-05-25T13:40:42Z</time>
      </trkpt>
      <trkpt lat="48.3794" lon="6.84137">
        <ele>605</ele>
        <time>2013-05-25T13:40:52Z</time>
      </trkpt>
      <trkpt lat="48.37827" lon="6.84208">
        <ele>605</ele>
        <time>2013-05-25T13:41:18Z</time>
      </trkpt>
      <trkpt lat="48.37767" lon="6.84268">
        <ele>604</ele>
        <time>2013-05-25T13:41:29Z</time>
      </trkpt>
      <trkpt lat="48.3768" lon="6.84311">
        <ele>602</ele>
        <time>2013-05-25T13:41:51Z</time>
      </trkpt>
      <trkpt lat="48.37664" lon="6.84328">
        <ele>601</ele>
        <time>2013-05-25T13:42:02Z</time>
      </trkpt>
      <trkpt lat="48.37662" lon="6.84343">
        <ele>600</ele>
        <time>2013-05-25T13:42:07Z</time>
      </trkpt>
      <trkpt lat="48.37672" lon="6.84371">
        <ele>599</ele>
        <time>2013-05-25T13:42:17Z</time>
      </trkpt>
      <trkpt lat="48.37731" lon="6.84431">
        <ele>596</ele>
        <time>2013-05-25T13:42:35Z</time>
      </trkpt>
      <trkpt lat="48.3777" lon="6.8448">
        <ele>596</ele>
        <time>2013-05-25T13:42:43Z</time>
      </trkpt>
      <trkpt lat="48.37778" lon="6.84504">
        <ele>595</ele>
        <time>2013-05-25T13:42:46Z</time>
      </trkpt>
      <trkpt lat="48.37787" lon="6.84583">
        <ele>588</ele>
        <time>2013-05-25T13:42:56Z</time>
      </trkpt>
      <trkpt lat="48.37817" lon="6.84646">
        <ele>582</ele>
        <time>2013-05-25T13:43:10Z</time>
      </trkpt>
      <trkpt lat="48.37823" lon="6.84644">
        <ele>581</ele>
        <time>2013-05-25T13:43:12Z</time>
      </trkpt>
      <trkpt lat="48.37848" lon="6.84633">
        <ele>553</ele>
        <time>2013-05-25T13:43:18Z</time>
      </trkpt>
      <trkpt lat="48.3787" lon="6.84633">
        <ele>535</ele>
        <time>2013-05-25T13:43:23Z</time>
      </trkpt>
      <trkpt lat="48.3789" lon="6.84635">
        <ele>527</ele>
        <time>2013-05-25T13:43:27Z</time>
      </trkpt>
      <trkpt lat="48.37981" lon="6.84656">
        <ele>509</ele>
        <time>2013-05-25T13:44:04Z</time>
      </trkpt>
      <trkpt lat="48.38071" lon="6.84701">
        <ele>500</ele>
        <time>2013-05-25T13:44:26Z</time>
      </trkpt>
      <trkpt lat="48.38076" lon="6.84714">
        <ele>497</ele>
        <time>2013-05-25T13:44:35Z</time>
      </trkpt>
      <trkpt lat="48.38053" lon="6.84757">
        <ele>480</ele>
        <time>2013-05-25T13:45:10Z</time>
      </trkpt>
      <trkpt lat="48.38036" lon="6.8477">
        <ele>472</ele>
        <time>2013-05-25T13:46:27Z</time>
      </trkpt>
      <trkpt lat="48.37968" lon="6.84796">
        <ele>469</ele>
        <time>2013-05-25T13:46:52Z</time>
      </trkpt>
      <trkpt lat="48.37944" lon="6.84817">
        <ele>469</ele>
        <time>2013-05-25T13:47:08Z</time>
      </trkpt>
      <trkpt lat="48.37919" lon="6.84826">
        <ele>467</ele>
        <time>2013-05-25T13:47:34Z</time>
      </trkpt>
      <trkpt lat="48.37903" lon="6.84843">
        <ele>466</ele>
        <time>2013-05-25T13:47:56Z</time>
      </trkpt>
      <trkpt lat="48.37842" lon="6.8486">
        <ele>468</ele>
        <time>2013-05-25T13:49:17Z</time>
      </trkpt>
      <trkpt lat="48.37825" lon="6.84877">
        <ele>470</ele>
        <time>2013-05-25T13:49:37Z</time>
      </trkpt>
      <trkpt lat="48.37819" lon="6.84867">
        <ele>473</ele>
        <time>2013-05-25T13:50:10Z</time>
      </trkpt>
      <trkpt lat="48.37822" lon="6.84858">
        <ele>474</ele>
        <time>2013-05-25T13:50:51Z</time>
      </trkpt>
      <trkpt lat="48.37818" lon="6.84856">
        <ele>477</ele>
        <time>2013-05-25T13:51:03Z</time>
      </trkpt>
      <trkpt lat="48.3779" lon="6.84858">
        <ele>485</ele>
        <time>2013-05-25T13:51:39Z</time>
      </trkpt>
      <trkpt lat="48.37773" lon="6.84875">
        <ele>488</ele>
        <time>2013-05-25T13:51:58Z</time>
      </trkpt>
      <trkpt lat="48.37761" lon="6.8488">
        <ele>492</ele>
        <time>2013-05-25T13:52:15Z</time>
      </trkpt>
      <trkpt lat="48.37744" lon="6.8491">
        <ele>500</ele>
        <time>2013-05-25T13:52:42Z</time>
      </trkpt>
      <trkpt lat="48.37738" lon="6.84905">
        <ele>502</ele>
        <time>2013-05-25T13:52:56Z</time>
      </trkpt>
      <trkpt lat="48.37742" lon="6.84903">
        <ele>503</ele>
        <time>2013-05-25T13:53:07Z</time>
      </trkpt>
      <trkpt lat="48.37707" lon="6.84916">
        <ele>502</ele>
        <time>2013-05-25T13:53:48Z</time>
      </trkpt>
      <trkpt lat="48.37692" lon="6.8491">
        <ele>501</ele>
        <time>2013-05-25T13:54:03Z</time>
      </trkpt>
      <trkpt lat="48.37633" lon="6.84933">
        <ele>501</ele>
        <time>2013-05-25T13:54:54Z</time>
      </trkpt>
      <trkpt lat="48.37624" lon="6.8495">
        <ele>502</ele>
        <time>2013-05-25T13:55:07Z</time>
      </trkpt>
      <trkpt lat="48.37624" lon="6.84965">
        <ele>503</ele>
        <time>2013-05-25T13:55:17Z</time>
      </trkpt>
      <trkpt lat="48.37632" lon="6.84987">
        <ele>504</ele>
        <time>2013-05-25T13:55:35Z</time>
      </trkpt>
      <trkpt lat="48.377" lon="6.85028">
        <ele>511</ele>
        <time>2013-05-25T13:56:30Z</time>
      </trkpt>
      <trkpt lat="48.37731" lon="6.85073">
        <ele>517</ele>
        <time>2013-05-25T13:57:05Z</time>
      </trkpt>
      <trkpt lat="48.37754" lon="6.8509">
        <ele>520</ele>
        <time>2013-05-25T13:57:24Z</time>
      </trkpt>
      <trkpt lat="48.37777" lon="6.85116">
        <ele>523</ele>
        <time>2013-05-25T13:57:37Z</time>
      </trkpt>
      <trkpt lat="48.37794" lon="6.85146">
        <ele>525</ele>
        <time>2013-05-25T13:57:49Z</time>
      </trkpt>
      <trkpt lat="48.378" lon="6.85178">
        <ele>527</ele>
        <time>2013-05-25T13:57:59Z</time>
      </trkpt>
      <trkpt lat="48.37795" lon="6.85214">
        <ele>531</ele>
        <time>2013-05-25T13:58:07Z</time>
      </trkpt>
      <trkpt lat="48.37778" lon="6.85251">
        <ele>536</ele>
        <time>2013-05-25T13:58:12Z</time>
      </trkpt>
      <trkpt lat="48.37729" lon="6.85337">
        <ele>548</ele>
        <time>2013-05-25T13:58:26Z</time>
      </trkpt>
      <trkpt lat="48.37683" lon="6.8541">
        <ele>550</ele>
        <time>2013-05-25T13:58:49Z</time>
      </trkpt>
      <trkpt lat="48.37674" lon="6.85465">
        <ele>551</ele>
        <time>2013-05-25T13:58:59Z</time>
      </trkpt>
      <trkpt lat="48.37671" lon="6.85553">
        <ele>553</ele>
        <time>2013-05-25T13:59:11Z</time>
      </trkpt>
      <trkpt lat="48.37661" lon="6.85583">
        <ele>552</ele>
        <time>2013-05-25T13:59:16Z</time>
      </trkpt>
      <trkpt lat="48.37624" lon="6.85652">
        <ele>551</ele>
        <time>2013-05-25T13:59:31Z</time>
      </trkpt>
      <trkpt lat="48.37621" lon="6.85727">
        <ele>552</ele>
        <time>2013-05-25T13:59:38Z</time>
      </trkpt>
      <trkpt lat="48.37611" lon="6.85794">
        <ele>556</ele>
        <time>2013-05-25T13:59:46Z</time>
      </trkpt>
      <trkpt lat="48.37644" lon="6.85849">
        <ele>556</ele>
        <time>2013-05-25T14:00:04Z</time>
      </trkpt>
      <trkpt lat="48.37648" lon="6.85867">
        <ele>556</ele>
        <time>2013-05-25T14:00:08Z</time>
      </trkpt>
      <trkpt lat="48.37642" lon="6.85914">
        <ele>557</ele>
        <time>2013-05-25T14:00:20Z</time>
      </trkpt>
      <trkpt lat="48.37649" lon="6.85993">
        <ele>557</ele>
        <time>2013-05-25T14:00:39Z</time>
      </trkpt>
      <trkpt lat="48.3766" lon="6.86013">
        <ele>557</ele>
        <time>2013-05-25T14:00:47Z</time>
      </trkpt>
      <trkpt lat="48.37677" lon="6.86023">
        <ele>558</ele>
        <time>2013-05-25T14:00:59Z</time>
      </trkpt>
      <trkpt lat="48.37686" lon="6.86019">
        <ele>557</ele>
        <time>2013-05-25T14:01:27Z</time>
      </trkpt>
      <trkpt lat="48.37695" lon="6.86023">
        <ele>556</ele>
        <time>2013-05-25T14:01:39Z</time>
      </trkpt>
      <trkpt lat="48.37702" lon="6.86034">
        <ele>556</ele>
        <time>2013-05-25T14:01:44Z</time>
      </trkpt>
      <trkpt lat="48.37707" lon="6.86062">
        <ele>555</ele>
        <time>2013-05-25T14:01:59Z</time>
      </trkpt>
      <trkpt lat="48.37704" lon="6.86135">
        <ele>553</ele>
        <time>2013-05-25T14:02:30Z</time>
      </trkpt>
      <trkpt lat="48.377" lon="6.8615">
        <ele>553</ele>
        <time>2013-05-25T14:02:37Z</time>
      </trkpt>
      <trkpt lat="48.3767" lon="6.86221">
        <ele>549</ele>
        <time>2013-05-25T14:03:31Z</time>
      </trkpt>
      <trkpt lat="48.3766" lon="6.86261">
        <ele>546</ele>
        <time>2013-05-25T14:03:58Z</time>
      </trkpt>
      <trkpt lat="48.37638" lon="6.86304">
        <ele>546</ele>
        <time>2013-05-25T14:04:28Z</time>
      </trkpt>
      <trkpt lat="48.37645" lon="6.863">
        <ele>546</ele>
        <time>2013-05-25T14:04:45Z</time>
      </trkpt>
      <trkpt lat="48.37646" lon="6.86291">
        <ele>546</ele>
        <time>2013-05-25T14:04:49Z</time>
      </trkpt>
      <trkpt lat="48.37635" lon="6.86289">
        <ele>546</ele>
        <time>2013-05-25T14:04:56Z</time>
      </trkpt>
      <trkpt lat="48.37628" lon="6.86302">
        <ele>547</ele>
        <time>2013-05-25T14:05:05Z</time>
      </trkpt>
      <trkpt lat="48.37636" lon="6.86298">
        <ele>548</ele>
        <time>2013-05-25T14:05:14Z</time>
      </trkpt>
      <trkpt lat="48.37639" lon="6.86221">
        <ele>551</ele>
        <time>2013-05-25T14:05:40Z</time>
      </trkpt>
      <trkpt lat="48.37625" lon="6.86109">
        <ele>552</ele>
        <time>2013-05-25T14:06:10Z</time>
      </trkpt>
      <trkpt lat="48.3762" lon="6.85985">
        <ele>552</ele>
        <time>2013-05-25T14:06:37Z</time>
      </trkpt>
      <trkpt lat="48.376" lon="6.85873">
        <ele>551</ele>
        <time>2013-05-25T14:07:14Z</time>
      </trkpt>
      <trkpt lat="48.37615" lon="6.85899">
        <ele>551</ele>
        <time>2013-05-25T14:07:51Z</time>
      </trkpt>
      <trkpt lat="48.37643" lon="6.85892">
        <ele>550</ele>
        <time>2013-05-25T14:09:01Z</time>
      </trkpt>
      <trkpt lat="48.37639" lon="6.85888">
        <ele>550</ele>
        <time>2013-05-25T14:09:36Z</time>
      </trkpt>
      <trkpt lat="48.37651" lon="6.85871">
        <ele>550</ele>
        <time>2013-05-25T14:09:54Z</time>
      </trkpt>
      <trkpt lat="48.37658" lon="6.85849">
        <ele>549</ele>
        <time>2013-05-25T14:10:01Z</time>
      </trkpt>
      <trkpt lat="48.37647" lon="6.85751">
        <ele>547</ele>
        <time>2013-05-25T14:10:22Z</time>
      </trkpt>
      <trkpt lat="48.37659" lon="6.85701">
        <ele>547</ele>
        <time>2013-05-25T14:10:28Z</time>
      </trkpt>
      <trkpt lat="48.37676" lon="6.85658">
        <ele>548</ele>
        <time>2013-05-25T14:10:34Z</time>
      </trkpt>
      <trkpt lat="48.37685" lon="6.85643">
        <ele>548</ele>
        <time>2013-05-25T14:10:37Z</time>
      </trkpt>
      <trkpt lat="48.37716" lon="6.85626">
        <ele>548</ele>
        <time>2013-05-25T14:10:46Z</time>
      </trkpt>
      <trkpt lat="48.37804" lon="6.85555">
        <ele>549</ele>
        <time>2013-05-25T14:11:25Z</time>
      </trkpt>
      <trkpt lat="48.37807" lon="6.8551">
        <ele>547</ele>
        <time>2013-05-25T14:12:07Z</time>
      </trkpt>
      <trkpt lat="48.37822" lon="6.85455">
        <ele>546</ele>
        <time>2013-05-25T14:12:23Z</time>
      </trkpt>
      <trkpt lat="48.37846" lon="6.85425">
        <ele>545</ele>
        <time>2013-05-25T14:12:35Z</time>
      </trkpt>
      <trkpt lat="48.37873" lon="6.85407">
        <ele>544</ele>
        <time>2013-05-25T14:12:43Z</time>
      </trkpt>
      <trkpt lat="48.379" lon="6.85401">
        <ele>543</ele>
        <time>2013-05-25T14:12:49Z</time>
      </trkpt>
      <trkpt lat="48.37927" lon="6.8541">
        <ele>543</ele>
        <time>2013-05-25T14:12:54Z</time>
      </trkpt>
      <trkpt lat="48.37997" lon="6.85455">
        <ele>540</ele>
        <time>2013-05-25T14:13:05Z</time>
      </trkpt>
      <trkpt lat="48.3807" lon="6.85465">
        <ele>529</ele>
        <time>2013-05-25T14:13:13Z</time>
      </trkpt>
      <trkpt lat="48.38114" lon="6.85463">
        <ele>520</ele>
        <time>2013-05-25T14:13:18Z</time>
      </trkpt>
      <trkpt lat="48.38206" lon="6.85435">
        <ele>493</ele>
        <time>2013-05-25T14:13:27Z</time>
      </trkpt>
      <trkpt lat="48.38247" lon="6.8542">
        <ele>487</ele>
        <time>2013-05-25T14:13:32Z</time>
      </trkpt>
      <trkpt lat="48.38273" lon="6.85405">
        <ele>486</ele>
        <time>2013-05-25T14:13:36Z</time>
      </trkpt>
      <trkpt lat="48.38304" lon="6.8538">
        <ele>472</ele>
        <time>2013-05-25T14:13:42Z</time>
      </trkpt>
      <trkpt lat="48.38351" lon="6.85332">
        <ele>467</ele>
        <time>2013-05-25T14:13:53Z</time>
      </trkpt>
      <trkpt lat="48.38392" lon="6.85279">
        <ele>461</ele>
        <time>2013-05-25T14:14:04Z</time>
      </trkpt>
      <trkpt lat="48.38419" lon="6.85212">
        <ele>457</ele>
        <time>2013-05-25T14:14:13Z</time>
      </trkpt>
      <trkpt lat="48.38427" lon="6.85201">
        <ele>457</ele>
        <time>2013-05-25T14:14:16Z</time>
      </trkpt>
      <trkpt lat="48.38438" lon="6.85201">
        <ele>457</ele>
        <time>2013-05-25T14:14:21Z</time>
      </trkpt>
      <trkpt lat="48.38447" lon="6.8521">
        <ele>458</ele>
        <time>2013-05-25T14:14:25Z</time>
      </trkpt>
      <trkpt lat="48.38466" lon="6.85255">
        <ele>456</ele>
        <time>2013-05-25T14:14:34Z</time>
      </trkpt>
      <trkpt lat="48.38492" lon="6.85369">
        <ele>451</ele>
        <time>2013-05-25T14:15:01Z</time>
      </trkpt>
      <trkpt lat="48.38496" lon="6.85373">
        <ele>451</ele>
        <time>2013-05-25T14:15:03Z</time>
      </trkpt>
      <trkpt lat="48.38515" lon="6.85377">
        <ele>450</ele>
        <time>2013-05-25T14:15:09Z</time>
      </trkpt>
      <trkpt lat="48.38584" lon="6.85362">
        <ele>453</ele>
        <time>2013-05-25T14:15:34Z</time>
      </trkpt>
      <trkpt lat="48.38592" lon="6.85367">
        <ele>454</ele>
        <time>2013-05-25T14:16:41Z</time>
      </trkpt>
      <trkpt lat="48.38607" lon="6.85403">
        <ele>453</ele>
        <time>2013-05-25T14:16:59Z</time>
      </trkpt>
      <trkpt lat="48.38651" lon="6.85448">
        <ele>451</ele>
        <time>2013-05-25T14:17:42Z</time>
      </trkpt>
      <trkpt lat="48.38685" lon="6.85459">
        <ele>451</ele>
        <time>2013-05-25T14:18:06Z</time>
      </trkpt>
      <trkpt lat="48.38716" lon="6.85457">
        <ele>451</ele>
        <time>2013-05-25T14:18:25Z</time>
      </trkpt>
      <trkpt lat="48.38761" lon="6.85418">
        <ele>451</ele>
        <time>2013-05-25T14:18:47Z</time>
      </trkpt>
      <trkpt lat="48.38801" lon="6.85347">
        <ele>450</ele>
        <time>2013-05-25T14:19:04Z</time>
      </trkpt>
      <trkpt lat="48.38811" lon="6.85283">
        <ele>445</ele>
        <time>2013-05-25T14:19:12Z</time>
      </trkpt>
      <trkpt lat="48.3881" lon="6.85208">
        <ele>442</ele>
        <time>2013-05-25T14:19:22Z</time>
      </trkpt>
      <trkpt lat="48.38806" lon="6.85189">
        <ele>441</ele>
        <time>2013-05-25T14:19:26Z</time>
      </trkpt>
      <trkpt lat="48.38807" lon="6.85176">
        <ele>441</ele>
        <time>2013-05-25T14:19:35Z</time>
      </trkpt>
      <trkpt lat="48.38813" lon="6.85165">
        <ele>440</ele>
        <time>2013-05-25T14:19:45Z</time>
      </trkpt>
      <trkpt lat="48.38872" lon="6.85152">
        <ele>435</ele>
        <time>2013-05-25T14:20:40Z</time>
      </trkpt>
      <trkpt lat="48.38949" lon="6.85101">
        <ele>433</ele>
        <time>2013-05-25T14:21:08Z</time>
      </trkpt>
      <trkpt lat="48.39084" lon="6.85156">
        <ele>434</ele>
        <time>2013-05-25T14:21:36Z</time>
      </trkpt>
      <trkpt lat="48.39114" lon="6.85158">
        <ele>434</ele>
        <time>2013-05-25T14:21:41Z</time>
      </trkpt>
      <trkpt lat="48.39135" lon="6.85152">
        <ele>434</ele>
        <time>2013-05-25T14:21:44Z</time>
      </trkpt>
      <trkpt lat="48.39186" lon="6.85109">
        <ele>432</ele>
        <time>2013-05-25T14:21:53Z</time>
      </trkpt>
      <trkpt lat="48.39267" lon="6.85021">
        <ele>433</ele>
        <time>2013-05-25T14:22:18Z</time>
      </trkpt>
      <trkpt lat="48.39282" lon="6.84998">
        <ele>433</ele>
        <time>2013-05-25T14:22:23Z</time>
      </trkpt>
      <trkpt lat="48.39291" lon="6.84972">
        <ele>432</ele>
        <time>2013-05-25T14:22:28Z</time>
      </trkpt>
      <trkpt lat="48.39332" lon="6.84931">
        <ele>430</ele>
        <time>2013-05-25T14:22:48Z</time>
      </trkpt>
      <trkpt lat="48.39365" lon="6.84865">
        <ele>428</ele>
        <time>2013-05-25T14:23:03Z</time>
      </trkpt>
      <trkpt lat="48.39388" lon="6.84856">
        <ele>429</ele>
        <time>2013-05-25T14:23:12Z</time>
      </trkpt>
      <trkpt lat="48.39406" lon="6.84871">
        <ele>429</ele>
        <time>2013-05-25T14:23:18Z</time>
      </trkpt>
      <trkpt lat="48.3944" lon="6.84882">
        <ele>433</ele>
        <time>2013-05-25T14:23:27Z</time>
      </trkpt>
      <trkpt lat="48.39448" lon="6.84907">
        <ele>430</ele>
        <time>2013-05-25T14:23:41Z</time>
      </trkpt>
      <trkpt lat="48.39454" lon="6.84899">
        <ele>428</ele>
        <time>2013-05-25T14:23:47Z</time>
      </trkpt>
      <trkpt lat="48.39468" lon="6.84852">
        <ele>419</ele>
        <time>2013-05-25T14:24:06Z</time>
      </trkpt>
      <trkpt lat="48.39494" lon="6.84798">
        <ele>414</ele>
        <time>2013-05-25T14:24:21Z</time>
      </trkpt>
      <trkpt lat="48.39512" lon="6.84742">
        <ele>399</ele>
        <time>2013-05-25T14:24:28Z</time>
      </trkpt>
      <trkpt lat="48.39558" lon="6.84558">
        <ele>394</ele>
        <time>2013-05-25T14:24:47Z</time>
      </trkpt>
      <trkpt lat="48.39559" lon="6.84598">
        <ele>397</ele>
        <time>2013-05-25T14:24:56Z</time>
      </trkpt>
      <trkpt lat="48.39547" lon="6.84637">
        <ele>398</ele>
        <time>2013-05-25T14:25:06Z</time>
      </trkpt>
      <trkpt lat="48.39558" lon="6.84631">
        <ele>397</ele>
        <time>2013-05-25T14:25:11Z</time>
      </trkpt>
      <trkpt lat="48.39568" lon="6.84605">
        <ele>394</ele>
        <time>2013-05-25T14:25:15Z</time>
      </trkpt>
      <trkpt lat="48.39584" lon="6.8459">
        <ele>393</ele>
        <time>2013-05-25T14:25:22Z</time>
      </trkpt>
      <trkpt lat="48.39596" lon="6.84601">
        <ele>394</ele>
        <time>2013-05-25T14:25:24Z</time>
      </trkpt>
      <trkpt lat="48.39628" lon="6.84605">
        <ele>393</ele>
        <time>2013-05-25T14:25:30Z</time>
      </trkpt>
      <trkpt lat="48.39661" lon="6.84631">
        <ele>394</ele>
        <time>2013-05-25T14:25:50Z</time>
      </trkpt>
      <trkpt lat="48.39662" lon="6.84644">
        <ele>387</ele>
        <time>2013-05-25T14:28:38Z</time>
      </trkpt>
      <trkpt lat="48.39648" lon="6.84663">
        <ele>387</ele>
        <time>2013-05-25T14:29:10Z</time>
      </trkpt>
      <trkpt lat="48.39648" lon="6.84682">
        <ele>387</ele>
        <time>2013-05-25T14:29:52Z</time>
      </trkpt>
    </trkseg>
  </trk>
</gpx>